<?xml version="1.0" encoding="UTF-8" standalone="no" ?>
<gpx xmlns="http://www.topografix.com/GPX/1/1" xmlns:xsi="http://www.w3.org/2001/XMLSchema-instance" xsi:schemaLocation="http://www.topografix.com/GPX/1/1 http://www.topografix.com/GPX/1/1/gpx.xsd" version="1.1" creator="VisuGPX - https://www.visugpx.com">
  <metadata>
    <name>Le Saut du Doubs Circuit à partir de Le Locle</name>
    <desc><![CDATA[** récupérée, adaptée, à tester **
]]></desc>
  </metadata>
  <trk>
    <name><![CDATA[Le Saut du Doubs Circuit à partir de Le Locle_1]]></name>
    <trkseg>
      <trkpt lat="47.06332" lon="6.75116">
        <ele>1030.5</ele>
      </trkpt>
      <trkpt lat="47.06332" lon="6.75116">
        <ele>1030.5</ele>
      </trkpt>
      <trkpt lat="47.06431" lon="6.7527">
        <ele>1010.434371</ele>
        <time>2020-07-17T16:59:01.016Z</time>
      </trkpt>
      <trkpt lat="47.06482" lon="6.75344">
        <ele>1020.562317</ele>
        <time>2020-07-17T17:00:05.548Z</time>
      </trkpt>
      <trkpt lat="47.06541" lon="6.75396">
        <ele>1029.067942</ele>
        <time>2020-07-17T17:00:54.996Z</time>
      </trkpt>
      <trkpt lat="47.06615" lon="6.75464">
        <ele>1035.438191</ele>
        <time>2020-07-17T17:01:37.976Z</time>
      </trkpt>
      <trkpt lat="47.06644" lon="6.75508">
        <ele>1038.508921</ele>
        <time>2020-07-17T17:01:58.911Z</time>
      </trkpt>
      <trkpt lat="47.0676" lon="6.75642">
        <ele>1051.683263</ele>
        <time>2020-07-17T17:03:29.357Z</time>
      </trkpt>
      <trkpt lat="47.06786" lon="6.75646">
        <ele>1054.187118</ele>
        <time>2020-07-17T17:03:51.272Z</time>
      </trkpt>
      <trkpt lat="47.06831" lon="6.7562">
        <ele>1058.792095</ele>
        <time>2020-07-17T17:04:29.091Z</time>
      </trkpt>
      <trkpt lat="47.06845" lon="6.75621">
        <ele>1060.184107</ele>
        <time>2020-07-17T17:04:41.430Z</time>
      </trkpt>
      <trkpt lat="47.06865" lon="6.75624">
        <ele>1062.227562</ele>
        <time>2020-07-17T17:04:56.640Z</time>
      </trkpt>
      <trkpt lat="47.0706" lon="6.75645">
        <ele>1079.264905</ele>
        <time>2020-07-17T17:07:08.455Z</time>
      </trkpt>
      <trkpt lat="47.07061" lon="6.7563">
        <ele>1079.840658</ele>
        <time>2020-07-17T17:07:13.071Z</time>
      </trkpt>
      <trkpt lat="47.07053" lon="6.756">
        <ele>1081.13887</ele>
        <time>2020-07-17T17:07:23.098Z</time>
      </trkpt>
      <trkpt lat="47.07028" lon="6.75552">
        <ele>1083.504248</ele>
        <time>2020-07-17T17:07:39.977Z</time>
      </trkpt>
      <trkpt lat="47.06997" lon="6.75506">
        <ele>1086.097969</ele>
        <time>2020-07-17T17:07:56.166Z</time>
      </trkpt>
      <trkpt lat="47.06966" lon="6.75471">
        <ele>1087.631958</ele>
        <time>2020-07-17T17:08:09.306Z</time>
      </trkpt>
      <trkpt lat="47.06977" lon="6.75432">
        <ele>1088.735664</ele>
        <time>2020-07-17T17:08:19.235Z</time>
      </trkpt>
      <trkpt lat="47.06982" lon="6.75356">
        <ele>1090.71211</ele>
        <time>2020-07-17T17:08:38.937Z</time>
      </trkpt>
      <trkpt lat="47.06987" lon="6.75338">
        <ele>1091.216407</ele>
        <time>2020-07-17T17:08:44.598Z</time>
      </trkpt>
      <trkpt lat="47.07009" lon="6.75315">
        <ele>1092.239459</ele>
        <time>2020-07-17T17:08:55.951Z</time>
      </trkpt>
      <trkpt lat="47.07026" lon="6.75317">
        <ele>1092.903333</ele>
        <time>2020-07-17T17:09:04.041Z</time>
      </trkpt>
      <trkpt lat="47.07114" lon="6.75403">
        <ele>1098.336154</ele>
        <time>2020-07-17T17:09:52.593Z</time>
      </trkpt>
      <trkpt lat="47.07126" lon="6.75407">
        <ele>1098.992113</ele>
        <time>2020-07-17T17:09:58.562Z</time>
      </trkpt>
      <trkpt lat="47.07222" lon="6.75303">
        <ele>1105.511827</ele>
        <time>2020-07-17T17:10:55.646Z</time>
      </trkpt>
      <trkpt lat="47.0723" lon="6.75261">
        <ele>1107.164604</ele>
        <time>2020-07-17T17:11:08.299Z</time>
      </trkpt>
      <trkpt lat="47.07176" lon="6.7506">
        <ele>1115.91962</ele>
        <time>2020-07-17T17:12:22.665Z</time>
      </trkpt>
      <trkpt lat="47.07189" lon="6.7498">
        <ele>1119.545544</ele>
        <time>2020-07-17T17:12:51.097Z</time>
      </trkpt>
      <trkpt lat="47.07199" lon="6.74974">
        <ele>1120.242167</ele>
        <time>2020-07-17T17:12:58.540Z</time>
      </trkpt>
      <trkpt lat="47.07242" lon="6.74897">
        <ele>1124.68314</ele>
        <time>2020-07-17T17:13:35.204Z</time>
      </trkpt>
      <trkpt lat="47.0725" lon="6.74873">
        <ele>1125.855303</ele>
        <time>2020-07-17T17:13:44.763Z</time>
      </trkpt>
      <trkpt lat="47.07239" lon="6.74775">
        <ele>1130.157885</ele>
        <time>2020-07-17T17:14:21.339Z</time>
      </trkpt>
      <trkpt lat="47.07226" lon="6.74727">
        <ele>1132.409174</ele>
        <time>2020-07-17T17:14:37.872Z</time>
      </trkpt>
      <trkpt lat="47.07215" lon="6.74662">
        <ele>1135.343127</ele>
        <time>2020-07-17T17:15:00.724Z</time>
      </trkpt>
      <trkpt lat="47.07216" lon="6.74602">
        <ele>1138.385388</ele>
        <time>2020-07-17T17:15:21.633Z</time>
      </trkpt>
      <trkpt lat="47.07201" lon="6.74425">
        <ele>1148.061325</ele>
        <time>2020-07-17T17:16:38.653Z</time>
      </trkpt>
      <trkpt lat="47.07208" lon="6.74388">
        <ele>1150.149093</ele>
        <time>2020-07-17T17:16:56.074Z</time>
      </trkpt>
      <trkpt lat="47.07216" lon="6.74378">
        <ele>1150.802691</ele>
        <time>2020-07-17T17:17:02.322Z</time>
      </trkpt>
      <trkpt lat="47.07235" lon="6.74376">
        <ele>1151.857155</ele>
        <time>2020-07-17T17:17:12.748Z</time>
      </trkpt>
      <trkpt lat="47.07242" lon="6.74378">
        <ele>1152.243546</ele>
        <time>2020-07-17T17:17:18.846Z</time>
      </trkpt>
      <trkpt lat="47.07271" lon="6.74389">
        <ele>1153.924725</ele>
        <time>2020-07-17T17:17:34.590Z</time>
      </trkpt>
      <trkpt lat="47.0734" lon="6.74401">
        <ele>1157.829052</ele>
        <time>2020-07-17T17:18:08.660Z</time>
      </trkpt>
      <trkpt lat="47.07369" lon="6.74396">
        <ele>1159.499068</ele>
        <time>2020-07-17T17:18:21.102Z</time>
      </trkpt>
      <trkpt lat="47.07392" lon="6.74372">
        <ele>1160.230452</ele>
        <time>2020-07-17T17:18:31.917Z</time>
      </trkpt>
      <trkpt lat="47.07396" lon="6.74337">
        <ele>1159.889335</ele>
        <time>2020-07-17T17:18:37.354Z</time>
      </trkpt>
      <trkpt lat="47.07374" lon="6.7416">
        <ele>1158.126742</ele>
        <time>2020-07-17T17:18:56.942Z</time>
      </trkpt>
      <trkpt lat="47.0738" lon="6.74096">
        <ele>1157.28324</ele>
        <time>2020-07-17T17:19:03.549Z</time>
      </trkpt>
      <trkpt lat="47.07395" lon="6.74027">
        <ele>1156.129829</ele>
        <time>2020-07-17T17:19:10.850Z</time>
      </trkpt>
      <trkpt lat="47.07425" lon="6.74003">
        <ele>1155.340582</ele>
        <time>2020-07-17T17:19:16.097Z</time>
      </trkpt>
      <trkpt lat="47.07461" lon="6.73992">
        <ele>1154.475435</ele>
        <time>2020-07-17T17:19:22.249Z</time>
      </trkpt>
      <trkpt lat="47.07479" lon="6.73947">
        <ele>1153.647696</ele>
        <time>2020-07-17T17:19:28.811Z</time>
      </trkpt>
      <trkpt lat="47.07483" lon="6.73902">
        <ele>1154.351014</ele>
        <time>2020-07-17T17:19:35.678Z</time>
      </trkpt>
      <trkpt lat="47.07491" lon="6.73894">
        <ele>1154.598952</ele>
        <time>2020-07-17T17:19:37.483Z</time>
      </trkpt>
      <trkpt lat="47.07505" lon="6.73917">
        <ele>1155.108508</ele>
        <time>2020-07-17T17:19:43.690Z</time>
      </trkpt>
      <trkpt lat="47.07543" lon="6.73989">
        <ele>1156.599895</ele>
        <time>2020-07-17T17:20:03.195Z</time>
      </trkpt>
      <trkpt lat="47.07567" lon="6.73997">
        <ele>1157.207622</ele>
        <time>2020-07-17T17:20:12.947Z</time>
      </trkpt>
      <trkpt lat="47.07649" lon="6.74001">
        <ele>1160.844369</ele>
        <time>2020-07-17T17:20:52.944Z</time>
      </trkpt>
      <trkpt lat="47.0767" lon="6.74024">
        <ele>1162.359163</ele>
        <time>2020-07-17T17:21:06.280Z</time>
      </trkpt>
      <trkpt lat="47.07713" lon="6.74073">
        <ele>1165.449727</ele>
        <time>2020-07-17T17:21:32.885Z</time>
      </trkpt>
      <trkpt lat="47.07802" lon="6.74132">
        <ele>1170.733607</ele>
        <time>2020-07-17T17:22:21.897Z</time>
      </trkpt>
      <trkpt lat="47.07834" lon="6.74137">
        <ele>1172.357347</ele>
        <time>2020-07-17T17:22:37.569Z</time>
      </trkpt>
      <trkpt lat="47.07849" lon="6.74151">
        <ele>1173.283473</ele>
        <time>2020-07-17T17:22:46.240Z</time>
      </trkpt>
      <trkpt lat="47.07865" lon="6.74178">
        <ele>1174.500834</ele>
        <time>2020-07-17T17:22:56.671Z</time>
      </trkpt>
      <trkpt lat="47.07885" lon="6.74195">
        <ele>1175.678664</ele>
        <time>2020-07-17T17:23:06.517Z</time>
      </trkpt>
      <trkpt lat="47.07919" lon="6.74211">
        <ele>1177.464075</ele>
        <time>2020-07-17T17:23:21.417Z</time>
      </trkpt>
      <trkpt lat="47.07941" lon="6.74228">
        <ele>1178.101129</ele>
        <time>2020-07-17T17:23:31.213Z</time>
      </trkpt>
      <trkpt lat="47.07998" lon="6.74292">
        <ele>1179.971852</ele>
        <time>2020-07-17T17:23:56.994Z</time>
      </trkpt>
      <trkpt lat="47.08045" lon="6.74317">
        <ele>1181.28701</ele>
        <time>2020-07-17T17:24:12.715Z</time>
      </trkpt>
      <trkpt lat="47.0809" lon="6.7438">
        <ele>1182.5628</ele>
        <time>2020-07-17T17:24:27.728Z</time>
      </trkpt>
      <trkpt lat="47.08096" lon="6.74384">
        <ele>1182.669029</ele>
        <time>2020-07-17T17:24:29.145Z</time>
      </trkpt>
      <trkpt lat="47.08127" lon="6.74403">
        <ele>1183.174437</ele>
        <time>2020-07-17T17:24:36.945Z</time>
      </trkpt>
      <trkpt lat="47.08147" lon="6.74401">
        <ele>1183.491135</ele>
        <time>2020-07-17T17:24:42.922Z</time>
      </trkpt>
      <trkpt lat="47.08187" lon="6.74361">
        <ele>1184.22595</ele>
        <time>2020-07-17T17:24:55.489Z</time>
      </trkpt>
      <trkpt lat="47.08209" lon="6.7435">
        <ele>1184.578339</ele>
        <time>2020-07-17T17:25:02.940Z</time>
      </trkpt>
      <trkpt lat="47.08225" lon="6.74347">
        <ele>1184.827464</ele>
        <time>2020-07-17T17:25:07.314Z</time>
      </trkpt>
      <trkpt lat="47.08229" lon="6.7442">
        <ele>1187.155531</ele>
        <time>2020-07-17T17:25:25.163Z</time>
      </trkpt>
      <trkpt lat="47.08234" lon="6.7447">
        <ele>1188.846996</ele>
        <time>2020-07-17T17:25:39.269Z</time>
      </trkpt>
      <trkpt lat="47.08269" lon="6.74584">
        <ele>1192.919717</ele>
        <time>2020-07-17T17:26:20.519Z</time>
      </trkpt>
      <trkpt lat="47.0833" lon="6.74814">
        <ele>1205.462455</ele>
        <time>2020-07-17T17:28:00.136Z</time>
      </trkpt>
      <trkpt lat="47.08329" lon="6.75014">
        <ele>1215.789801</ele>
        <time>2020-07-17T17:29:23.137Z</time>
      </trkpt>
      <trkpt lat="47.08311" lon="6.7508">
        <ele>1219.472213</ele>
        <time>2020-07-17T17:29:51.097Z</time>
      </trkpt>
      <trkpt lat="47.08312" lon="6.75098">
        <ele>1220.418495</ele>
        <time>2020-07-17T17:29:58.317Z</time>
      </trkpt>
      <trkpt lat="47.08324" lon="6.75128">
        <ele>1221.679694</ele>
        <time>2020-07-17T17:30:10.066Z</time>
      </trkpt>
      <trkpt lat="47.08312" lon="6.75229">
        <ele>1224.834562</ele>
        <time>2020-07-17T17:30:42.754Z</time>
      </trkpt>
      <trkpt lat="47.0831" lon="6.75247">
        <ele>1225.394393</ele>
        <time>2020-07-17T17:30:48.597Z</time>
      </trkpt>
      <trkpt lat="47.0833" lon="6.75292">
        <ele>1227.023092</ele>
        <time>2020-07-17T17:31:07.183Z</time>
      </trkpt>
      <trkpt lat="47.08382" lon="6.75359">
        <ele>1229.200692</ele>
        <time>2020-07-17T17:31:39.517Z</time>
      </trkpt>
      <trkpt lat="47.08439" lon="6.75473">
        <ele>1229.743849</ele>
        <time>2020-07-17T17:32:10.778Z</time>
      </trkpt>
      <trkpt lat="47.08439" lon="6.75473">
        <ele>1229.743849</ele>
        <time>2020-07-17T17:32:10.778Z</time>
      </trkpt>
      <trkpt lat="47.08443" lon="6.75486">
        <ele>1229.798743</ele>
        <time>2020-07-17T17:32:14.916Z</time>
      </trkpt>
      <trkpt lat="47.08448" lon="6.75488">
        <ele>1229.826851</ele>
        <time>2020-07-17T17:32:15.850Z</time>
      </trkpt>
      <trkpt lat="47.08452" lon="6.75489">
        <ele>1229.851495</ele>
        <time>2020-07-17T17:32:16.954Z</time>
      </trkpt>
      <trkpt lat="47.0846" lon="6.7549">
        <ele>1229.89618</ele>
        <time>2020-07-17T17:32:19.106Z</time>
      </trkpt>
      <trkpt lat="47.08482" lon="6.75486">
        <ele>1230.024404</ele>
        <time>2020-07-17T17:32:26.979Z</time>
      </trkpt>
      <trkpt lat="47.08504" lon="6.75453">
        <ele>1229.9325</ele>
        <time>2020-07-17T17:32:36.223Z</time>
      </trkpt>
      <trkpt lat="47.08524" lon="6.75406">
        <ele>1229.661133</ele>
        <time>2020-07-17T17:32:47.550Z</time>
      </trkpt>
      <trkpt lat="47.08534" lon="6.75327">
        <ele>1229.270822</ele>
        <time>2020-07-17T17:33:03.030Z</time>
      </trkpt>
      <trkpt lat="47.08548" lon="6.75312">
        <ele>1229.149789</ele>
        <time>2020-07-17T17:33:08.062Z</time>
      </trkpt>
      <trkpt lat="47.08588" lon="6.75308">
        <ele>1228.863733</ele>
        <time>2020-07-17T17:33:20.480Z</time>
      </trkpt>
      <trkpt lat="47.08643" lon="6.75328">
        <ele>1228.835029</ele>
        <time>2020-07-17T17:33:39.199Z</time>
      </trkpt>
      <trkpt lat="47.08683" lon="6.75352">
        <ele>1228.864643</ele>
        <time>2020-07-17T17:33:53.480Z</time>
      </trkpt>
      <trkpt lat="47.08703" lon="6.75356">
        <ele>1228.879131</ele>
        <time>2020-07-17T17:34:00.419Z</time>
      </trkpt>
      <trkpt lat="47.08718" lon="6.75353">
        <ele>1228.889644</ele>
        <time>2020-07-17T17:34:05.293Z</time>
      </trkpt>
      <trkpt lat="47.08731" lon="6.75345">
        <ele>1228.898913</ele>
        <time>2020-07-17T17:34:09.622Z</time>
      </trkpt>
      <trkpt lat="47.08762" lon="6.75295">
        <ele>1228.871071</ele>
        <time>2020-07-17T17:34:24.284Z</time>
      </trkpt>
      <trkpt lat="47.08771" lon="6.75264">
        <ele>1228.685218</ele>
        <time>2020-07-17T17:34:31.522Z</time>
      </trkpt>
      <trkpt lat="47.08781" lon="6.75258">
        <ele>1228.598819</ele>
        <time>2020-07-17T17:34:34.897Z</time>
      </trkpt>
      <trkpt lat="47.08795" lon="6.7526">
        <ele>1228.490635</ele>
        <time>2020-07-17T17:34:39.058Z</time>
      </trkpt>
      <trkpt lat="47.0883" lon="6.75284">
        <ele>1228.179732</ele>
        <time>2020-07-17T17:34:50.692Z</time>
      </trkpt>
      <trkpt lat="47.08845" lon="6.75285">
        <ele>1228.058834</ele>
        <time>2020-07-17T17:34:55.031Z</time>
      </trkpt>
      <trkpt lat="47.08859" lon="6.7527">
        <ele>1227.914394</ele>
        <time>2020-07-17T17:35:00.403Z</time>
      </trkpt>
      <trkpt lat="47.08871" lon="6.75238">
        <ele>1227.716521</ele>
        <time>2020-07-17T17:35:07.488Z</time>
      </trkpt>
      <trkpt lat="47.08886" lon="6.75212">
        <ele>1227.527028</ele>
        <time>2020-07-17T17:35:14.242Z</time>
      </trkpt>
      <trkpt lat="47.08914" lon="6.75184">
        <ele>1226.58339</ele>
        <time>2020-07-17T17:35:23.931Z</time>
      </trkpt>
      <trkpt lat="47.08917" lon="6.75183">
        <ele>1226.500118</ele>
        <time>2020-07-17T17:35:24.567Z</time>
      </trkpt>
      <trkpt lat="47.08921" lon="6.75183">
        <ele>1226.376192</ele>
        <time>2020-07-17T17:35:25.624Z</time>
      </trkpt>
      <trkpt lat="47.08938" lon="6.75195">
        <ele>1225.780912</ele>
        <time>2020-07-17T17:35:30.916Z</time>
      </trkpt>
      <trkpt lat="47.08938" lon="6.75195">
        <ele>1225.762831</ele>
        <time>2020-07-17T17:35:31.070Z</time>
      </trkpt>
      <trkpt lat="47.08968" lon="6.75246">
        <ele>1224.329046</ele>
        <time>2020-07-17T17:35:43.144Z</time>
      </trkpt>
      <trkpt lat="47.08996" lon="6.75317">
        <ele>1222.538127</ele>
        <time>2020-07-17T17:35:57.279Z</time>
      </trkpt>
      <trkpt lat="47.09005" lon="6.75324">
        <ele>1222.228153</ele>
        <time>2020-07-17T17:35:59.657Z</time>
      </trkpt>
      <trkpt lat="47.09026" lon="6.75324">
        <ele>1221.330564</ele>
        <time>2020-07-17T17:36:04.665Z</time>
      </trkpt>
      <trkpt lat="47.09033" lon="6.75332">
        <ele>1220.777417</ele>
        <time>2020-07-17T17:36:06.692Z</time>
      </trkpt>
      <trkpt lat="47.09042" lon="6.75406">
        <ele>1217.423525</ele>
        <time>2020-07-17T17:36:18.784Z</time>
      </trkpt>
      <trkpt lat="47.09069" lon="6.75456">
        <ele>1214.600684</ele>
        <time>2020-07-17T17:36:28.705Z</time>
      </trkpt>
      <trkpt lat="47.09084" lon="6.75465">
        <ele>1213.518594</ele>
        <time>2020-07-17T17:36:32.470Z</time>
      </trkpt>
      <trkpt lat="47.09096" lon="6.75457">
        <ele>1212.667912</ele>
        <time>2020-07-17T17:36:35.416Z</time>
      </trkpt>
      <trkpt lat="47.09101" lon="6.75433">
        <ele>1211.576219</ele>
        <time>2020-07-17T17:36:39.218Z</time>
      </trkpt>
      <trkpt lat="47.09103" lon="6.75375">
        <ele>1209.16618</ele>
        <time>2020-07-17T17:36:48.197Z</time>
      </trkpt>
      <trkpt lat="47.09112" lon="6.75358">
        <ele>1208.363487</ele>
        <time>2020-07-17T17:36:51.532Z</time>
      </trkpt>
      <trkpt lat="47.09155" lon="6.75322">
        <ele>1205.621711</ele>
        <time>2020-07-17T17:37:03.062Z</time>
      </trkpt>
      <trkpt lat="47.09184" lon="6.75323">
        <ele>1204.041555</ele>
        <time>2020-07-17T17:37:09.937Z</time>
      </trkpt>
      <trkpt lat="47.09256" lon="6.75377">
        <ele>1199.878021</ele>
        <time>2020-07-17T17:37:29.990Z</time>
      </trkpt>
      <trkpt lat="47.09289" lon="6.75426">
        <ele>1198.447223</ele>
        <time>2020-07-17T17:37:41.947Z</time>
      </trkpt>
      <trkpt lat="47.09367" lon="6.75472">
        <ele>1195.84823</ele>
        <time>2020-07-17T17:38:03.971Z</time>
      </trkpt>
      <trkpt lat="47.09418" lon="6.75489">
        <ele>1194.267554</ele>
        <time>2020-07-17T17:38:17.889Z</time>
      </trkpt>
      <trkpt lat="47.09465" lon="6.75537">
        <ele>1178.5</ele>
      </trkpt>
      <trkpt lat="47.09501" lon="6.75597">
        <ele>1177.7</ele>
      </trkpt>
      <trkpt lat="47.09575" lon="6.75552">
        <ele>1165.2</ele>
      </trkpt>
      <trkpt lat="47.09601" lon="6.75584">
        <ele>1161</ele>
      </trkpt>
      <trkpt lat="47.09618" lon="6.75638">
        <ele>1160.1</ele>
      </trkpt>
      <trkpt lat="47.09683" lon="6.75571">
        <ele>1137.9</ele>
      </trkpt>
      <trkpt lat="47.09734" lon="6.75571">
        <ele>1137.944823</ele>
        <time>2020-07-17T17:41:06.927Z</time>
      </trkpt>
      <trkpt lat="47.09761" lon="6.75568">
        <ele>1133.684387</ele>
        <time>2020-07-17T17:41:12.490Z</time>
      </trkpt>
      <trkpt lat="47.09786" lon="6.75549">
        <ele>1129.254224</ele>
        <time>2020-07-17T17:41:18.152Z</time>
      </trkpt>
      <trkpt lat="47.09851" lon="6.7557">
        <ele>1118.724242</ele>
        <time>2020-07-17T17:41:31.363Z</time>
      </trkpt>
      <trkpt lat="47.09863" lon="6.75569">
        <ele>1116.752321</ele>
        <time>2020-07-17T17:41:33.831Z</time>
      </trkpt>
      <trkpt lat="47.09962" lon="6.75469">
        <ele>1098.425835</ele>
        <time>2020-07-17T17:41:57.525Z</time>
      </trkpt>
      <trkpt lat="47.09989" lon="6.7545">
        <ele>1093.989192</ele>
        <time>2020-07-17T17:42:03.752Z</time>
      </trkpt>
      <trkpt lat="47.09996" lon="6.75445">
        <ele>1092.809454</ele>
        <time>2020-07-17T17:42:05.273Z</time>
      </trkpt>
      <trkpt lat="47.10004" lon="6.75438">
        <ele>1091.375384</ele>
        <time>2020-07-17T17:42:07.387Z</time>
      </trkpt>
      <trkpt lat="47.10005" lon="6.75438">
        <ele>1088.655414</ele>
        <time>2020-07-17T17:42:15.281Z</time>
      </trkpt>
      <trkpt lat="47.10015" lon="6.7546">
        <ele>1086.075053</ele>
        <time>2020-07-17T17:42:18.180Z</time>
      </trkpt>
      <trkpt lat="47.10032" lon="6.7549">
        <ele>1085.115614</ele>
        <time>2020-07-17T17:42:21.413Z</time>
      </trkpt>
      <trkpt lat="47.10036" lon="6.75496">
        <ele>1084.933338</ele>
        <time>2020-07-17T17:42:22.150Z</time>
      </trkpt>
      <trkpt lat="47.10053" lon="6.7552">
        <ele>1084.088604</ele>
        <time>2020-07-17T17:42:25.335Z</time>
      </trkpt>
      <trkpt lat="47.10099" lon="6.75587">
        <ele>1081.778799</ele>
        <time>2020-07-17T17:42:34.028Z</time>
      </trkpt>
      <trkpt lat="47.10129" lon="6.75645">
        <ele>1079.998106</ele>
        <time>2020-07-17T17:42:52.433Z</time>
      </trkpt>
      <trkpt lat="47.10146" lon="6.75678">
        <ele>1080.205737</ele>
        <time>2020-07-17T17:42:59.670Z</time>
      </trkpt>
      <trkpt lat="47.10162" lon="6.75722">
        <ele>1081.03957</ele>
        <time>2020-07-17T17:43:09.165Z</time>
      </trkpt>
      <trkpt lat="47.10166" lon="6.75738">
        <ele>1081.324776</ele>
        <time>2020-07-17T17:43:12.506Z</time>
      </trkpt>
      <trkpt lat="47.10174" lon="6.75763">
        <ele>1081.789791</ele>
        <time>2020-07-17T17:43:18.519Z</time>
      </trkpt>
      <trkpt lat="47.10191" lon="6.758">
        <ele>1082.535693</ele>
        <time>2020-07-17T17:43:28.178Z</time>
      </trkpt>
      <trkpt lat="47.10232" lon="6.75853">
        <ele>1083.893783</ele>
        <time>2020-07-17T17:43:46.828Z</time>
      </trkpt>
      <trkpt lat="47.10298" lon="6.75991">
        <ele>1086.855409</ele>
        <time>2020-07-17T17:44:26.994Z</time>
      </trkpt>
      <trkpt lat="47.10398" lon="6.76299">
        <ele>1091.168453</ele>
        <time>2020-07-17T17:45:33.458Z</time>
      </trkpt>
      <trkpt lat="47.10471" lon="6.76475">
        <ele>1091.04675</ele>
        <time>2020-07-17T17:45:59.819Z</time>
      </trkpt>
      <trkpt lat="47.10481" lon="6.76521">
        <ele>1090.915274</ele>
        <time>2020-07-17T17:46:05.538Z</time>
      </trkpt>
      <trkpt lat="47.10514" lon="6.76728">
        <ele>1087.72768</ele>
        <time>2020-07-17T17:46:28.965Z</time>
      </trkpt>
      <trkpt lat="47.10516" lon="6.76788">
        <ele>1086.639709</ele>
        <time>2020-07-17T17:46:34.580Z</time>
      </trkpt>
      <trkpt lat="47.10516" lon="6.76811">
        <ele>1086.209891</ele>
        <time>2020-07-17T17:46:36.760Z</time>
      </trkpt>
      <trkpt lat="47.10526" lon="6.76828">
        <ele>1085.62004</ele>
        <time>2020-07-17T17:46:38.745Z</time>
      </trkpt>
      <trkpt lat="47.10547" lon="6.76861">
        <ele>1083.759626</ele>
        <time>2020-07-17T17:46:42.849Z</time>
      </trkpt>
      <trkpt lat="47.1055" lon="6.76866">
        <ele>1083.516195</ele>
        <time>2020-07-17T17:46:43.371Z</time>
      </trkpt>
      <trkpt lat="47.10584" lon="6.76908">
        <ele>1080.912349</ele>
        <time>2020-07-17T17:46:49.006Z</time>
      </trkpt>
      <trkpt lat="47.10589" lon="6.76915">
        <ele>1080.488585</ele>
        <time>2020-07-17T17:46:49.874Z</time>
      </trkpt>
      <trkpt lat="47.10624" lon="6.76982">
        <ele>1077.088992</ele>
        <time>2020-07-17T17:46:57.265Z</time>
      </trkpt>
      <trkpt lat="47.10637" lon="6.77015">
        <ele>1075.542783</ele>
        <time>2020-07-17T17:47:00.597Z</time>
      </trkpt>
      <trkpt lat="47.10645" lon="6.7699">
        <ele>1074.778031</ele>
        <time>2020-07-17T17:47:05.083Z</time>
      </trkpt>
      <trkpt lat="47.10695" lon="6.76766">
        <ele>1069.03403</ele>
        <time>2020-07-17T17:47:46.622Z</time>
      </trkpt>
      <trkpt lat="47.10698" lon="6.7669">
        <ele>1067.309763</ele>
        <time>2020-07-17T17:48:01.191Z</time>
      </trkpt>
      <trkpt lat="47.1071" lon="6.76637">
        <ele>1066.047425</ele>
        <time>2020-07-17T17:48:11.133Z</time>
      </trkpt>
      <trkpt lat="47.1071" lon="6.76632">
        <ele>1065.92351</ele>
        <time>2020-07-17T17:48:12.183Z</time>
      </trkpt>
      <trkpt lat="47.10711" lon="6.76625">
        <ele>1065.767407</ele>
        <time>2020-07-17T17:48:13.208Z</time>
      </trkpt>
      <trkpt lat="47.10707" lon="6.76593">
        <ele>1065.047297</ele>
        <time>2020-07-17T17:48:19.139Z</time>
      </trkpt>
      <trkpt lat="47.10675" lon="6.76496">
        <ele>1062.402307</ele>
        <time>2020-07-17T17:48:37.495Z</time>
      </trkpt>
      <trkpt lat="47.10668" lon="6.76476">
        <ele>1061.571265</ele>
        <time>2020-07-17T17:48:39.511Z</time>
      </trkpt>
      <trkpt lat="47.10665" lon="6.76435">
        <ele>1060.006962</ele>
        <time>2020-07-17T17:48:44.012Z</time>
      </trkpt>
      <trkpt lat="47.10665" lon="6.76435">
        <ele>1060.006962</ele>
        <time>2020-07-17T17:48:44.017Z</time>
      </trkpt>
      <trkpt lat="47.10672" lon="6.76424">
        <ele>1059.473952</ele>
        <time>2020-07-17T17:48:45.272Z</time>
      </trkpt>
      <trkpt lat="47.10681" lon="6.76422">
        <ele>1058.949082</ele>
        <time>2020-07-17T17:48:46.688Z</time>
      </trkpt>
      <trkpt lat="47.10694" lon="6.76434">
        <ele>1058.116154</ele>
        <time>2020-07-17T17:48:48.884Z</time>
      </trkpt>
      <trkpt lat="47.10713" lon="6.76478">
        <ele>1056.153911</ele>
        <time>2020-07-17T17:48:53.926Z</time>
      </trkpt>
      <trkpt lat="47.10717" lon="6.76484">
        <ele>1055.850236</ele>
        <time>2020-07-17T17:48:54.626Z</time>
      </trkpt>
      <trkpt lat="47.10735" lon="6.76506">
        <ele>1054.555755</ele>
        <time>2020-07-17T17:49:00.321Z</time>
      </trkpt>
      <trkpt lat="47.10771" lon="6.76551">
        <ele>1051.435849</ele>
        <time>2020-07-17T17:49:11.153Z</time>
      </trkpt>
      <trkpt lat="47.10779" lon="6.76565">
        <ele>1050.462153</ele>
        <time>2020-07-17T17:49:14.038Z</time>
      </trkpt>
      <trkpt lat="47.10784" lon="6.76576">
        <ele>1049.735172</ele>
        <time>2020-07-17T17:49:16.045Z</time>
      </trkpt>
      <trkpt lat="47.10817" lon="6.76647">
        <ele>1045.108719</ele>
        <time>2020-07-17T17:49:29.099Z</time>
      </trkpt>
      <trkpt lat="47.10828" lon="6.76667">
        <ele>1043.711241</ele>
        <time>2020-07-17T17:49:32.937Z</time>
      </trkpt>
      <trkpt lat="47.1088" lon="6.7677">
        <ele>1036.472416</ele>
        <time>2020-07-17T17:49:52.210Z</time>
      </trkpt>
      <trkpt lat="47.10946" lon="6.76883">
        <ele>1027.461129</ele>
        <time>2020-07-17T17:50:14.097Z</time>
      </trkpt>
      <trkpt lat="47.11032" lon="6.76961">
        <ele>1019.339237</ele>
        <time>2020-07-17T17:50:36.589Z</time>
      </trkpt>
      <trkpt lat="47.11064" lon="6.77018">
        <ele>1015.761915</ele>
        <time>2020-07-17T17:50:48.023Z</time>
      </trkpt>
      <trkpt lat="47.1108" lon="6.77078">
        <ele>1012.650653</ele>
        <time>2020-07-17T17:50:58.109Z</time>
      </trkpt>
      <trkpt lat="47.11084" lon="6.77084">
        <ele>1012.310634</ele>
        <time>2020-07-17T17:50:59.135Z</time>
      </trkpt>
      <trkpt lat="47.11105" lon="6.77106">
        <ele>1010.469589</ele>
        <time>2020-07-17T17:51:02.839Z</time>
      </trkpt>
      <trkpt lat="47.11129" lon="6.7714">
        <ele>1008.812987</ele>
        <time>2020-07-17T17:51:07.570Z</time>
      </trkpt>
      <trkpt lat="47.11136" lon="6.77149">
        <ele>1008.406916</ele>
        <time>2020-07-17T17:51:08.813Z</time>
      </trkpt>
      <trkpt lat="47.11142" lon="6.77154">
        <ele>1008.093122</ele>
        <time>2020-07-17T17:51:09.767Z</time>
      </trkpt>
      <trkpt lat="47.1115" lon="6.77152">
        <ele>1007.740821</ele>
        <time>2020-07-17T17:51:10.911Z</time>
      </trkpt>
      <trkpt lat="47.1115" lon="6.77152">
        <ele>1007.740821</ele>
        <time>2020-07-17T17:51:10.992Z</time>
      </trkpt>
      <trkpt lat="47.11157" lon="6.77139">
        <ele>1007.236324</ele>
        <time>2020-07-17T17:51:14.001Z</time>
      </trkpt>
      <trkpt lat="47.1116" lon="6.7712">
        <ele>1006.640261</ele>
        <time>2020-07-17T17:51:17.111Z</time>
      </trkpt>
      <trkpt lat="47.11148" lon="6.77064">
        <ele>1004.877489</ele>
        <time>2020-07-17T17:51:26.934Z</time>
      </trkpt>
      <trkpt lat="47.11148" lon="6.77048">
        <ele>1004.38985</ele>
        <time>2020-07-17T17:51:29.793Z</time>
      </trkpt>
      <trkpt lat="47.1116" lon="6.76985">
        <ele>1002.43807</ele>
        <time>2020-07-17T17:51:41.211Z</time>
      </trkpt>
      <trkpt lat="47.1115" lon="6.76884">
        <ele>999.692978</ele>
        <time>2020-07-17T17:51:59.345Z</time>
      </trkpt>
      <trkpt lat="47.1114" lon="6.76819">
        <ele>997.947928</ele>
        <time>2020-07-17T17:52:10.969Z</time>
      </trkpt>
      <trkpt lat="47.11106" lon="6.76668">
        <ele>993.247078</ele>
        <time>2020-07-17T17:52:37.506Z</time>
      </trkpt>
      <trkpt lat="47.11056" lon="6.76324">
        <ele>979.984576</ele>
        <time>2020-07-17T17:53:34.028Z</time>
      </trkpt>
      <trkpt lat="47.11028" lon="6.76215">
        <ele>975.417414</ele>
        <time>2020-07-17T17:53:52.834Z</time>
      </trkpt>
      <trkpt lat="47.11019" lon="6.76153">
        <ele>972.796365</ele>
        <time>2020-07-17T17:54:03.026Z</time>
      </trkpt>
      <trkpt lat="47.10986" lon="6.76032">
        <ele>967.38157</ele>
        <time>2020-07-17T17:54:23.751Z</time>
      </trkpt>
      <trkpt lat="47.10984" lon="6.76">
        <ele>966.036524</ele>
        <time>2020-07-17T17:54:28.854Z</time>
      </trkpt>
      <trkpt lat="47.10917" lon="6.75768">
        <ele>955.571273</ele>
        <time>2020-07-17T17:55:08.554Z</time>
      </trkpt>
      <trkpt lat="47.10857" lon="6.75632">
        <ele>950.357176</ele>
        <time>2020-07-17T17:55:35.147Z</time>
      </trkpt>
      <trkpt lat="47.10834" lon="6.75566">
        <ele>948.363537</ele>
        <time>2020-07-17T17:55:48.071Z</time>
      </trkpt>
      <trkpt lat="47.10779" lon="6.75465">
        <ele>944.980057</ele>
        <time>2020-07-17T17:56:11.162Z</time>
      </trkpt>
      <trkpt lat="47.10766" lon="6.75428">
        <ele>943.929387</ele>
        <time>2020-07-17T17:56:18.686Z</time>
      </trkpt>
      <trkpt lat="47.10743" lon="6.75351">
        <ele>941.828097</ele>
        <time>2020-07-17T17:56:33.602Z</time>
      </trkpt>
      <trkpt lat="47.10685" lon="6.75039">
        <ele>931.267117</ele>
        <time>2020-07-17T17:57:26.768Z</time>
      </trkpt>
      <trkpt lat="47.10658" lon="6.74929">
        <ele>925.035829</ele>
        <time>2020-07-17T17:57:45.347Z</time>
      </trkpt>
      <trkpt lat="47.10625" lon="6.74829">
        <ele>918.287829</ele>
        <time>2020-07-17T17:58:01.849Z</time>
      </trkpt>
      <trkpt lat="47.10566" lon="6.74718">
        <ele>906.787165</ele>
        <time>2020-07-17T17:58:21.938Z</time>
      </trkpt>
      <trkpt lat="47.10562" lon="6.74711">
        <ele>905.759417</ele>
        <time>2020-07-17T17:58:23.316Z</time>
      </trkpt>
      <trkpt lat="47.10547" lon="6.74686">
        <ele>902.271912</ele>
        <time>2020-07-17T17:58:27.953Z</time>
      </trkpt>
      <trkpt lat="47.10496" lon="6.74621">
        <ele>891.908447</ele>
        <time>2020-07-17T17:58:41.199Z</time>
      </trkpt>
      <trkpt lat="47.10459" lon="6.7459">
        <ele>885.501577</ele>
        <time>2020-07-17T17:58:49.671Z</time>
      </trkpt>
      <trkpt lat="47.10411" lon="6.74575">
        <ele>879.362138</ele>
        <time>2020-07-17T17:58:59.683Z</time>
      </trkpt>
      <trkpt lat="47.10406" lon="6.74575">
        <ele>878.647359</ele>
        <time>2020-07-17T17:59:00.799Z</time>
      </trkpt>
      <trkpt lat="47.10398" lon="6.74575">
        <ele>877.732367</ele>
        <time>2020-07-17T17:59:02.393Z</time>
      </trkpt>
      <trkpt lat="47.10383" lon="6.74579">
        <ele>875.789176</ele>
        <time>2020-07-17T17:59:06.038Z</time>
      </trkpt>
      <trkpt lat="47.1038" lon="6.7458">
        <ele>875.365565</ele>
        <time>2020-07-17T17:59:06.698Z</time>
      </trkpt>
      <trkpt lat="47.10376" lon="6.74583">
        <ele>874.885068</ele>
        <time>2020-07-17T17:59:07.441Z</time>
      </trkpt>
      <trkpt lat="47.10344" lon="6.74628">
        <ele>869.244067</ele>
        <time>2020-07-17T17:59:16.541Z</time>
      </trkpt>
      <trkpt lat="47.1034" lon="6.74635">
        <ele>868.510517</ele>
        <time>2020-07-17T17:59:18.272Z</time>
      </trkpt>
      <trkpt lat="47.10338" lon="6.74642">
        <ele>867.838987</ele>
        <time>2020-07-17T17:59:23.116Z</time>
      </trkpt>
      <trkpt lat="47.10331" lon="6.74665">
        <ele>865.731208</ele>
        <time>2020-07-17T17:59:26.516Z</time>
      </trkpt>
      <trkpt lat="47.10329" lon="6.74673">
        <ele>864.947387</ele>
        <time>2020-07-17T17:59:27.728Z</time>
      </trkpt>
      <trkpt lat="47.10326" lon="6.74688">
        <ele>863.614949</ele>
        <time>2020-07-17T17:59:33.523Z</time>
      </trkpt>
      <trkpt lat="47.10324" lon="6.74694">
        <ele>863.426416</ele>
        <time>2020-07-17T17:59:36.229Z</time>
      </trkpt>
      <trkpt lat="47.10323" lon="6.74699">
        <ele>863.323225</ele>
        <time>2020-07-17T17:59:37.129Z</time>
      </trkpt>
      <trkpt lat="47.1032" lon="6.74708">
        <ele>863.147157</ele>
        <time>2020-07-17T17:59:38.456Z</time>
      </trkpt>
      <trkpt lat="47.10319" lon="6.74709">
        <ele>863.10778</ele>
        <time>2020-07-17T17:59:38.800Z</time>
      </trkpt>
      <trkpt lat="47.10316" lon="6.74713">
        <ele>863.013577</ele>
        <time>2020-07-17T17:59:39.490Z</time>
      </trkpt>
      <trkpt lat="47.103" lon="6.74725">
        <ele>862.533383</ele>
        <time>2020-07-17T17:59:44.536Z</time>
      </trkpt>
      <trkpt lat="47.10293" lon="6.74729">
        <ele>862.315373</ele>
        <time>2020-07-17T17:59:46.705Z</time>
      </trkpt>
      <trkpt lat="47.10285" lon="6.74732">
        <ele>862.09992</ele>
        <time>2020-07-17T17:59:48.339Z</time>
      </trkpt>
      <trkpt lat="47.10255" lon="6.74761">
        <ele>861.119006</ele>
        <time>2020-07-17T17:59:59.679Z</time>
      </trkpt>
      <trkpt lat="47.1025" lon="6.74769">
        <ele>860.932289</ele>
        <time>2020-07-17T18:00:01.358Z</time>
      </trkpt>
      <trkpt lat="47.10243" lon="6.74786">
        <ele>860.568816</ele>
        <time>2020-07-17T18:00:12.582Z</time>
      </trkpt>
      <trkpt lat="47.10215" lon="6.74855">
        <ele>859.093796</ele>
        <time>2020-07-17T18:00:26.800Z</time>
      </trkpt>
      <trkpt lat="47.10173" lon="6.74908">
        <ele>859.265713</ele>
        <time>2020-07-17T18:00:43.882Z</time>
      </trkpt>
      <trkpt lat="47.10099" lon="6.74945">
        <ele>860.429607</ele>
        <time>2020-07-17T18:01:15.274Z</time>
      </trkpt>
      <trkpt lat="47.10031" lon="6.74968">
        <ele>861.567614</ele>
        <time>2020-07-17T18:01:47.589Z</time>
      </trkpt>
      <trkpt lat="47.09958" lon="6.75033">
        <ele>864.014004</ele>
        <time>2020-07-17T18:02:28.859Z</time>
      </trkpt>
      <trkpt lat="47.09921" lon="6.75054">
        <ele>865.153992</ele>
        <time>2020-07-17T18:02:46.700Z</time>
      </trkpt>
      <trkpt lat="47.09915" lon="6.75055">
        <ele>865.336311</ele>
        <time>2020-07-17T18:02:53.102Z</time>
      </trkpt>
      <trkpt lat="47.09905" lon="6.75058">
        <ele>865.634748</ele>
        <time>2020-07-17T18:02:56.216Z</time>
      </trkpt>
      <trkpt lat="47.09905" lon="6.75058">
        <ele>865.634748</ele>
        <time>2020-07-17T18:02:56.216Z</time>
      </trkpt>
      <trkpt lat="47.09871" lon="6.75055">
        <ele>866.491522</ele>
        <time>2020-07-17T18:03:10.710Z</time>
      </trkpt>
      <trkpt lat="47.09853" lon="6.75042">
        <ele>866.439608</ele>
        <time>2020-07-17T18:03:17.102Z</time>
      </trkpt>
      <trkpt lat="47.09849" lon="6.75036">
        <ele>866.423933</ele>
        <time>2020-07-17T18:03:21.712Z</time>
      </trkpt>
      <trkpt lat="47.09845" lon="6.75031">
        <ele>866.411061</ele>
        <time>2020-07-17T18:03:23.785Z</time>
      </trkpt>
      <trkpt lat="47.09829" lon="6.75012">
        <ele>866.357883</ele>
        <time>2020-07-17T18:03:30.041Z</time>
      </trkpt>
      <trkpt lat="47.09815" lon="6.75005">
        <ele>866.320091</ele>
        <time>2020-07-17T18:03:37.751Z</time>
      </trkpt>
      <trkpt lat="47.0975" lon="6.7501">
        <ele>866.154188</ele>
        <time>2020-07-17T18:03:57.662Z</time>
      </trkpt>
      <trkpt lat="47.09709" lon="6.74991">
        <ele>866.044749</ele>
        <time>2020-07-17T18:04:08.588Z</time>
      </trkpt>
      <trkpt lat="47.09678" lon="6.74987">
        <ele>864.731484</ele>
        <time>2020-07-17T18:04:16.794Z</time>
      </trkpt>
      <trkpt lat="47.09656" lon="6.74977">
        <ele>863.723368</ele>
        <time>2020-07-17T18:04:22.540Z</time>
      </trkpt>
      <trkpt lat="47.09602" lon="6.74932">
        <ele>860.961949</ele>
        <time>2020-07-17T18:04:37.654Z</time>
      </trkpt>
      <trkpt lat="47.09511" lon="6.7489">
        <ele>856.643519</ele>
        <time>2020-07-17T18:05:00.402Z</time>
      </trkpt>
      <trkpt lat="47.09498" lon="6.74877">
        <ele>855.877403</ele>
        <time>2020-07-17T18:05:04.169Z</time>
      </trkpt>
      <trkpt lat="47.09477" lon="6.74839">
        <ele>854.265391</ele>
        <time>2020-07-17T18:05:12.074Z</time>
      </trkpt>
      <trkpt lat="47.09445" lon="6.7481">
        <ele>852.439754</ele>
        <time>2020-07-17T18:05:20.994Z</time>
      </trkpt>
      <trkpt lat="47.09382" lon="6.74798">
        <ele>849.377996</ele>
        <time>2020-07-17T18:05:36.785Z</time>
      </trkpt>
      <trkpt lat="47.09308" lon="6.74815">
        <ele>847.346165</ele>
        <time>2020-07-17T18:05:56.526Z</time>
      </trkpt>
      <trkpt lat="47.09274" lon="6.74804">
        <ele>846.378891</ele>
        <time>2020-07-17T18:06:05.913Z</time>
      </trkpt>
      <trkpt lat="47.09254" lon="6.74789">
        <ele>845.777998</ele>
        <time>2020-07-17T18:06:11.959Z</time>
      </trkpt>
      <trkpt lat="47.0922" lon="6.74744">
        <ele>844.511583</ele>
        <time>2020-07-17T18:06:24.255Z</time>
      </trkpt>
      <trkpt lat="47.0921" lon="6.74697">
        <ele>843.745122</ele>
        <time>2020-07-17T18:06:33.505Z</time>
      </trkpt>
      <trkpt lat="47.09209" lon="6.74692">
        <ele>843.659245</ele>
        <time>2020-07-17T18:06:34.361Z</time>
      </trkpt>
      <trkpt lat="47.09208" lon="6.74687">
        <ele>843.566058</ele>
        <time>2020-07-17T18:06:35.297Z</time>
      </trkpt>
      <trkpt lat="47.09181" lon="6.74649">
        <ele>842.725122</ele>
        <time>2020-07-17T18:06:45.421Z</time>
      </trkpt>
      <trkpt lat="47.09165" lon="6.74592">
        <ele>841.779296</ele>
        <time>2020-07-17T18:06:56.564Z</time>
      </trkpt>
      <trkpt lat="47.09121" lon="6.74567">
        <ele>840.700495</ele>
        <time>2020-07-17T18:07:09.473Z</time>
      </trkpt>
      <trkpt lat="47.09072" lon="6.74494">
        <ele>840.519556</ele>
        <time>2020-07-17T18:07:29.001Z</time>
      </trkpt>
      <trkpt lat="47.09056" lon="6.74457">
        <ele>840.593659</ele>
        <time>2020-07-17T18:07:38.067Z</time>
      </trkpt>
      <trkpt lat="47.09018" lon="6.74427">
        <ele>840.702289</ele>
        <time>2020-07-17T18:07:53.950Z</time>
      </trkpt>
      <trkpt lat="47.09012" lon="6.74384">
        <ele>840.776646</ele>
        <time>2020-07-17T18:08:05.258Z</time>
      </trkpt>
      <trkpt lat="47.0899" lon="6.74327">
        <ele>841.579246</ele>
        <time>2020-07-17T18:08:25.155Z</time>
      </trkpt>
      <trkpt lat="47.0899" lon="6.74279">
        <ele>842.640981</ele>
        <time>2020-07-17T18:08:41.419Z</time>
      </trkpt>
      <trkpt lat="47.08959" lon="6.74251">
        <ele>843.802673</ele>
        <time>2020-07-17T18:09:00.721Z</time>
      </trkpt>
      <trkpt lat="47.08945" lon="6.74195">
        <ele>845.127049</ele>
        <time>2020-07-17T18:09:22.049Z</time>
      </trkpt>
      <trkpt lat="47.08927" lon="6.7417">
        <ele>845.913587</ele>
        <time>2020-07-17T18:09:34.224Z</time>
      </trkpt>
      <trkpt lat="47.08907" lon="6.74109">
        <ele>846.727041</ele>
        <time>2020-07-17T18:09:54.897Z</time>
      </trkpt>
      <trkpt lat="47.08874" lon="6.74042">
        <ele>846.995275</ele>
        <time>2020-07-17T18:10:17.686Z</time>
      </trkpt>
      <trkpt lat="47.08861" lon="6.73995">
        <ele>847.155605</ele>
        <time>2020-07-17T18:10:28.819Z</time>
      </trkpt>
      <trkpt lat="47.08848" lon="6.73882">
        <ele>847.419398</ele>
        <time>2020-07-17T18:10:50.866Z</time>
      </trkpt>
      <trkpt lat="47.08855" lon="6.73805">
        <ele>847.24995</ele>
        <time>2020-07-17T18:11:05.760Z</time>
      </trkpt>
      <trkpt lat="47.08849" lon="6.7378">
        <ele>847.191483</ele>
        <time>2020-07-17T18:11:11.066Z</time>
      </trkpt>
      <trkpt lat="47.08824" lon="6.7373">
        <ele>847.057968</ele>
        <time>2020-07-17T18:11:24.603Z</time>
      </trkpt>
      <trkpt lat="47.08817" lon="6.73701">
        <ele>846.989961</ele>
        <time>2020-07-17T18:11:31.976Z</time>
      </trkpt>
      <trkpt lat="47.0882" lon="6.7364">
        <ele>847.064137</ele>
        <time>2020-07-17T18:11:47.394Z</time>
      </trkpt>
      <trkpt lat="47.08817" lon="6.73602">
        <ele>847.556534</ele>
        <time>2020-07-17T18:11:57.924Z</time>
      </trkpt>
      <trkpt lat="47.08825" lon="6.73563">
        <ele>848.082666</ele>
        <time>2020-07-17T18:12:09.524Z</time>
      </trkpt>
      <trkpt lat="47.08822" lon="6.73527">
        <ele>848.552464</ele>
        <time>2020-07-17T18:12:20.389Z</time>
      </trkpt>
      <trkpt lat="47.08818" lon="6.73512">
        <ele>848.762948</ele>
        <time>2020-07-17T18:12:25.447Z</time>
      </trkpt>
      <trkpt lat="47.08791" lon="6.73474">
        <ele>849.462963</ele>
        <time>2020-07-17T18:12:42.549Z</time>
      </trkpt>
      <trkpt lat="47.08784" lon="6.73448">
        <ele>849.831564</ele>
        <time>2020-07-17T18:12:50.983Z</time>
      </trkpt>
      <trkpt lat="47.08791" lon="6.734">
        <ele>850.315808</ele>
        <time>2020-07-17T18:13:04.121Z</time>
      </trkpt>
      <trkpt lat="47.08815" lon="6.73371">
        <ele>850.416099</ele>
        <time>2020-07-17T18:13:15.431Z</time>
      </trkpt>
      <trkpt lat="47.08817" lon="6.73359">
        <ele>850.443268</ele>
        <time>2020-07-17T18:13:18.406Z</time>
      </trkpt>
      <trkpt lat="47.08808" lon="6.73273">
        <ele>850.636502</ele>
        <time>2020-07-17T18:13:38.503Z</time>
      </trkpt>
      <trkpt lat="47.0881" lon="6.73211">
        <ele>850.771925</ele>
        <time>2020-07-17T18:13:51.621Z</time>
      </trkpt>
      <trkpt lat="47.088" lon="6.73136">
        <ele>850.510913</ele>
        <time>2020-07-17T18:14:07.275Z</time>
      </trkpt>
      <trkpt lat="47.08803" lon="6.73031">
        <ele>849.387363</ele>
        <time>2020-07-17T18:14:28.039Z</time>
      </trkpt>
      <trkpt lat="47.08796" lon="6.72963">
        <ele>848.645127</ele>
        <time>2020-07-17T18:14:41.498Z</time>
      </trkpt>
      <trkpt lat="47.08801" lon="6.72934">
        <ele>848.323527</ele>
        <time>2020-07-17T18:14:47.000Z</time>
      </trkpt>
      <trkpt lat="47.08823" lon="6.72883">
        <ele>847.305343</ele>
        <time>2020-07-17T18:14:57.641Z</time>
      </trkpt>
      <trkpt lat="47.08837" lon="6.72818">
        <ele>845.815822</ele>
        <time>2020-07-17T18:15:09.207Z</time>
      </trkpt>
      <trkpt lat="47.08876" lon="6.7277">
        <ele>844.190965</ele>
        <time>2020-07-17T18:15:21.792Z</time>
      </trkpt>
      <trkpt lat="47.08884" lon="6.72673">
        <ele>842.208011</ele>
        <time>2020-07-17T18:15:39.368Z</time>
      </trkpt>
      <trkpt lat="47.0893" lon="6.72561">
        <ele>841.835426</ele>
        <time>2020-07-17T18:16:04.549Z</time>
      </trkpt>
      <trkpt lat="47.08932" lon="6.72545">
        <ele>841.792144</ele>
        <time>2020-07-17T18:16:08.160Z</time>
      </trkpt>
      <trkpt lat="47.0891" lon="6.72491">
        <ele>841.612483</ele>
        <time>2020-07-17T18:16:24.118Z</time>
      </trkpt>
      <trkpt lat="47.0889" lon="6.72467">
        <ele>841.503773</ele>
        <time>2020-07-17T18:16:35.366Z</time>
      </trkpt>
      <trkpt lat="47.08873" lon="6.72426">
        <ele>841.449138</ele>
        <time>2020-07-17T18:16:48.876Z</time>
      </trkpt>
      <trkpt lat="47.08842" lon="6.72382">
        <ele>841.39408</ele>
        <time>2020-07-17T18:17:05.566Z</time>
      </trkpt>
      <trkpt lat="47.08823" lon="6.72325">
        <ele>841.33786</ele>
        <time>2020-07-17T18:17:19.907Z</time>
      </trkpt>
      <trkpt lat="47.08799" lon="6.72289">
        <ele>841.294078</ele>
        <time>2020-07-17T18:17:29.872Z</time>
      </trkpt>
      <trkpt lat="47.08777" lon="6.72223">
        <ele>840.195459</ele>
        <time>2020-07-17T18:17:43.568Z</time>
      </trkpt>
      <trkpt lat="47.08776" lon="6.72191">
        <ele>839.006363</ele>
        <time>2020-07-17T18:17:49.039Z</time>
      </trkpt>
      <trkpt lat="47.08795" lon="6.72019">
        <ele>832.414119</ele>
        <time>2020-07-17T18:18:16.592Z</time>
      </trkpt>
      <trkpt lat="47.08777" lon="6.71942">
        <ele>827.747123</ele>
        <time>2020-07-17T18:18:29.244Z</time>
      </trkpt>
      <trkpt lat="47.08769" lon="6.71848">
        <ele>821.382012</ele>
        <time>2020-07-17T18:18:43.549Z</time>
      </trkpt>
      <trkpt lat="47.08746" lon="6.71759">
        <ele>814.915228</ele>
        <time>2020-07-17T18:18:57.356Z</time>
      </trkpt>
      <trkpt lat="47.0873" lon="6.71656">
        <ele>804.826744</ele>
        <time>2020-07-17T18:19:11.901Z</time>
      </trkpt>
      <trkpt lat="47.08727" lon="6.71639">
        <ele>803.009431</ele>
        <time>2020-07-17T18:19:14.284Z</time>
      </trkpt>
      <trkpt lat="47.08722" lon="6.71587">
        <ele>797.631091</ele>
        <time>2020-07-17T18:19:21.443Z</time>
      </trkpt>
      <trkpt lat="47.0872" lon="6.71567">
        <ele>795.537433</ele>
        <time>2020-07-17T18:19:24.315Z</time>
      </trkpt>
      <trkpt lat="47.08719" lon="6.7156">
        <ele>794.815868</ele>
        <time>2020-07-17T18:19:25.230Z</time>
      </trkpt>
      <trkpt lat="47.08719" lon="6.71542">
        <ele>792.951792</ele>
        <time>2020-07-17T18:19:27.683Z</time>
      </trkpt>
      <trkpt lat="47.08719" lon="6.7148">
        <ele>786.526984</ele>
        <time>2020-07-17T18:19:36.193Z</time>
      </trkpt>
      <trkpt lat="47.08732" lon="6.71482">
        <ele>785.452798</ele>
        <time>2020-07-17T18:19:39.127Z</time>
      </trkpt>
      <trkpt lat="47.08753" lon="6.71486">
        <ele>784.033929</ele>
        <time>2020-07-17T18:19:43.363Z</time>
      </trkpt>
      <trkpt lat="47.08763" lon="6.71476">
        <ele>783.192245</ele>
        <time>2020-07-17T18:19:46.394Z</time>
      </trkpt>
      <trkpt lat="47.08756" lon="6.71451">
        <ele>781.940243</ele>
        <time>2020-07-17T18:19:50.225Z</time>
      </trkpt>
      <trkpt lat="47.08729" lon="6.71436">
        <ele>780.028123</ele>
        <time>2020-07-17T18:19:56.653Z</time>
      </trkpt>
      <trkpt lat="47.08725" lon="6.71433">
        <ele>779.726811</ele>
        <time>2020-07-17T18:19:57.599Z</time>
      </trkpt>
      <trkpt lat="47.08722" lon="6.71431">
        <ele>779.467619</ele>
        <time>2020-07-17T18:19:58.494Z</time>
      </trkpt>
      <trkpt lat="47.08727" lon="6.7142">
        <ele>778.847312</ele>
        <time>2020-07-17T18:20:00.591Z</time>
      </trkpt>
      <trkpt lat="47.08723" lon="6.71413">
        <ele>778.406385</ele>
        <time>2020-07-17T18:20:04.119Z</time>
      </trkpt>
      <trkpt lat="47.08716" lon="6.71406">
        <ele>777.875832</ele>
        <time>2020-07-17T18:20:05.924Z</time>
      </trkpt>
      <trkpt lat="47.08723" lon="6.71413">
        <ele>777.34528</ele>
        <time>2020-07-17T18:20:07.886Z</time>
      </trkpt>
      <trkpt lat="47.08727" lon="6.7142">
        <ele>776.904353</ele>
        <time>2020-07-17T18:20:09.537Z</time>
      </trkpt>
      <trkpt lat="47.08722" lon="6.71431">
        <ele>776.284046</ele>
        <time>2020-07-17T18:20:12.089Z</time>
      </trkpt>
      <trkpt lat="47.08719" lon="6.71434">
        <ele>776.03234</ele>
        <time>2020-07-17T18:20:16.199Z</time>
      </trkpt>
      <trkpt lat="47.087" lon="6.71445">
        <ele>774.686544</ele>
        <time>2020-07-17T18:20:21.901Z</time>
      </trkpt>
      <trkpt lat="47.0867" lon="6.71447">
        <ele>774.705632</ele>
        <time>2020-07-17T18:20:36.356Z</time>
      </trkpt>
      <trkpt lat="47.0863" lon="6.714">
        <ele>776.126265</ele>
        <time>2020-07-17T18:20:55.746Z</time>
      </trkpt>
      <trkpt lat="47.086" lon="6.71348">
        <ele>777.426222</ele>
        <time>2020-07-17T18:21:23.762Z</time>
      </trkpt>
      <trkpt lat="47.08594" lon="6.71336">
        <ele>777.703526</ele>
        <time>2020-07-17T18:21:29.347Z</time>
      </trkpt>
      <trkpt lat="47.08592" lon="6.71325">
        <ele>777.914444</ele>
        <time>2020-07-17T18:21:31.643Z</time>
      </trkpt>
      <trkpt lat="47.08589" lon="6.71272">
        <ele>778.928672</ele>
        <time>2020-07-17T18:21:48.784Z</time>
      </trkpt>
      <trkpt lat="47.08575" lon="6.7123">
        <ele>779.154866</ele>
        <time>2020-07-17T18:22:03.793Z</time>
      </trkpt>
      <trkpt lat="47.0856" lon="6.71203">
        <ele>779.199255</ele>
        <time>2020-07-17T18:22:14.447Z</time>
      </trkpt>
      <trkpt lat="47.08538" lon="6.71181">
        <ele>779.247648</ele>
        <time>2020-07-17T18:22:25.602Z</time>
      </trkpt>
      <trkpt lat="47.08519" lon="6.71169">
        <ele>779.285448</ele>
        <time>2020-07-17T18:22:33.221Z</time>
      </trkpt>
      <trkpt lat="47.08501" lon="6.71142">
        <ele>779.33347</ele>
        <time>2020-07-17T18:22:40.142Z</time>
      </trkpt>
      <trkpt lat="47.08431" lon="6.71058">
        <ele>780.400132</ele>
        <time>2020-07-17T18:23:04.353Z</time>
      </trkpt>
      <trkpt lat="47.08429" lon="6.71051">
        <ele>780.562689</ele>
        <time>2020-07-17T18:23:09.649Z</time>
      </trkpt>
      <trkpt lat="47.08424" lon="6.71037">
        <ele>780.890386</ele>
        <time>2020-07-17T18:23:11.856Z</time>
      </trkpt>
      <trkpt lat="47.08419" lon="6.71023">
        <ele>781.214433</ele>
        <time>2020-07-17T18:23:15.008Z</time>
      </trkpt>
      <trkpt lat="47.08414" lon="6.71004">
        <ele>781.64283</ele>
        <time>2020-07-17T18:23:26.279Z</time>
      </trkpt>
      <trkpt lat="47.08414" lon="6.70996">
        <ele>781.795243</ele>
        <time>2020-07-17T18:23:27.285Z</time>
      </trkpt>
      <trkpt lat="47.08413" lon="6.7099">
        <ele>781.93365</ele>
        <time>2020-07-17T18:23:27.807Z</time>
      </trkpt>
      <trkpt lat="47.08418" lon="6.70933">
        <ele>783.107598</ele>
        <time>2020-07-17T18:23:44.336Z</time>
      </trkpt>
      <trkpt lat="47.08414" lon="6.70897">
        <ele>783.866988</ele>
        <time>2020-07-17T18:24:06.168Z</time>
      </trkpt>
      <trkpt lat="47.08414" lon="6.70895">
        <ele>783.908657</ele>
        <time>2020-07-17T18:24:06.323Z</time>
      </trkpt>
      <trkpt lat="47.08414" lon="6.70893">
        <ele>783.941777</ele>
        <time>2020-07-17T18:24:06.482Z</time>
      </trkpt>
      <trkpt lat="47.08413" lon="6.7089">
        <ele>784.012184</ele>
        <time>2020-07-17T18:24:06.751Z</time>
      </trkpt>
      <trkpt lat="47.08413" lon="6.70889">
        <ele>784.033668</ele>
        <time>2020-07-17T18:24:06.839Z</time>
      </trkpt>
      <trkpt lat="47.08412" lon="6.70886">
        <ele>784.089387</ele>
        <time>2020-07-17T18:24:07.048Z</time>
      </trkpt>
      <trkpt lat="47.08411" lon="6.70883">
        <ele>784.166503</ele>
        <time>2020-07-17T18:24:07.469Z</time>
      </trkpt>
      <trkpt lat="47.08411" lon="6.70883">
        <ele>784.173389</ele>
        <time>2020-07-17T18:24:07.493Z</time>
      </trkpt>
      <trkpt lat="47.0841" lon="6.7088">
        <ele>784.246689</ele>
        <time>2020-07-17T18:24:07.984Z</time>
      </trkpt>
      <trkpt lat="47.08408" lon="6.70876">
        <ele>784.339794</ele>
        <time>2020-07-17T18:24:08.888Z</time>
      </trkpt>
      <trkpt lat="47.08398" lon="6.7087">
        <ele>784.647297</ele>
        <time>2020-07-17T18:24:12.006Z</time>
      </trkpt>
      <trkpt lat="47.08396" lon="6.7087">
        <ele>784.713928</ele>
        <time>2020-07-17T18:24:12.920Z</time>
      </trkpt>
      <trkpt lat="47.08394" lon="6.7087">
        <ele>784.783829</ele>
        <time>2020-07-17T18:24:16.337Z</time>
      </trkpt>
      <trkpt lat="47.08329" lon="6.70913">
        <ele>796.855455</ele>
        <time>2020-07-17T18:25:12.382Z</time>
      </trkpt>
      <trkpt lat="47.08326" lon="6.70917">
        <ele>797.588204</ele>
        <time>2020-07-17T18:25:18.106Z</time>
      </trkpt>
      <trkpt lat="47.08324" lon="6.7092">
        <ele>798.108437</ele>
        <time>2020-07-17T18:25:22.177Z</time>
      </trkpt>
      <trkpt lat="47.08316" lon="6.70947">
        <ele>801.652678</ele>
        <time>2020-07-17T18:25:43.179Z</time>
      </trkpt>
      <trkpt lat="47.08308" lon="6.71073">
        <ele>816.77276</ele>
        <time>2020-07-17T18:27:37.885Z</time>
      </trkpt>
      <trkpt lat="47.08303" lon="6.71091">
        <ele>818.084021</ele>
        <time>2020-07-17T18:27:49.593Z</time>
      </trkpt>
      <trkpt lat="47.083" lon="6.71096">
        <ele>818.505219</ele>
        <time>2020-07-17T18:27:55.539Z</time>
      </trkpt>
      <trkpt lat="47.08296" lon="6.71101">
        <ele>819.013986</ele>
        <time>2020-07-17T18:28:02.443Z</time>
      </trkpt>
      <trkpt lat="47.08283" lon="6.71105">
        <ele>820.370525</ele>
        <time>2020-07-17T18:28:17.799Z</time>
      </trkpt>
      <trkpt lat="47.08267" lon="6.71093">
        <ele>822.161811</ele>
        <time>2020-07-17T18:28:38.219Z</time>
      </trkpt>
      <trkpt lat="47.08243" lon="6.7104">
        <ele>826.489898</ele>
        <time>2020-07-17T18:29:15.155Z</time>
      </trkpt>
      <trkpt lat="47.08229" lon="6.70959">
        <ele>832.1876</ele>
        <time>2020-07-17T18:29:37.791Z</time>
      </trkpt>
      <trkpt lat="47.0823" lon="6.70878">
        <ele>831.294374</ele>
        <time>2020-07-17T18:29:46.466Z</time>
      </trkpt>
      <trkpt lat="47.08206" lon="6.70825">
        <ele>826.490945</ele>
        <time>2020-07-17T18:29:51.513Z</time>
      </trkpt>
      <trkpt lat="47.0819" lon="6.70709">
        <ele>817.65734</ele>
        <time>2020-07-17T18:30:00.697Z</time>
      </trkpt>
      <trkpt lat="47.08179" lon="6.70609">
        <ele>810.771606</ele>
        <time>2020-07-17T18:30:08.622Z</time>
      </trkpt>
      <trkpt lat="47.08173" lon="6.70621">
        <ele>809.822978</ele>
        <time>2020-07-17T18:30:10.783Z</time>
      </trkpt>
      <trkpt lat="47.08167" lon="6.7061">
        <ele>808.896044</ele>
        <time>2020-07-17T18:30:12.867Z</time>
      </trkpt>
      <trkpt lat="47.08164" lon="6.70588">
        <ele>807.437896</ele>
        <time>2020-07-17T18:30:16.045Z</time>
      </trkpt>
      <trkpt lat="47.08157" lon="6.70638">
        <ele>804.165877</ele>
        <time>2020-07-17T18:30:23.353Z</time>
      </trkpt>
      <trkpt lat="47.08156" lon="6.70673">
        <ele>801.924894</ele>
        <time>2020-07-17T18:30:28.559Z</time>
      </trkpt>
      <trkpt lat="47.08157" lon="6.70638">
        <ele>799.68391</ele>
        <time>2020-07-17T18:30:34.142Z</time>
      </trkpt>
      <trkpt lat="47.08164" lon="6.70588">
        <ele>798.921947</ele>
        <time>2020-07-17T18:30:44.166Z</time>
      </trkpt>
      <trkpt lat="47.08167" lon="6.7061">
        <ele>799.890402</ele>
        <time>2020-07-17T18:30:50.891Z</time>
      </trkpt>
      <trkpt lat="47.08173" lon="6.70621">
        <ele>800.506041</ele>
        <time>2020-07-17T18:30:55.877Z</time>
      </trkpt>
      <trkpt lat="47.08179" lon="6.70609">
        <ele>801.136089</ele>
        <time>2020-07-17T18:31:00.991Z</time>
      </trkpt>
      <trkpt lat="47.08178" lon="6.70597">
        <ele>801.674141</ele>
        <time>2020-07-17T18:31:02.963Z</time>
      </trkpt>
      <trkpt lat="47.08163" lon="6.70556">
        <ele>803.633078</ele>
        <time>2020-07-17T18:31:17.237Z</time>
      </trkpt>
      <trkpt lat="47.08151" lon="6.70552">
        <ele>804.391035</ele>
        <time>2020-07-17T18:31:23.397Z</time>
      </trkpt>
      <trkpt lat="47.08139" lon="6.70559">
        <ele>805.168165</ele>
        <time>2020-07-17T18:31:29.698Z</time>
      </trkpt>
      <trkpt lat="47.0811" lon="6.70776">
        <ele>822.90415</ele>
        <time>2020-07-17T18:33:39.076Z</time>
      </trkpt>
      <trkpt lat="47.08095" lon="6.70824">
        <ele>828.560002</ele>
        <time>2020-07-17T18:34:20.228Z</time>
      </trkpt>
      <trkpt lat="47.08054" lon="6.70902">
        <ele>838.914418</ele>
        <time>2020-07-17T18:35:35.767Z</time>
      </trkpt>
      <trkpt lat="47.08025" lon="6.70924">
        <ele>843.177296</ele>
        <time>2020-07-17T18:36:10.983Z</time>
      </trkpt>
      <trkpt lat="47.07929" lon="6.70965">
        <ele>856.064515</ele>
        <time>2020-07-17T18:37:39.427Z</time>
      </trkpt>
      <trkpt lat="47.0788" lon="6.70972">
        <ele>860.785437</ele>
        <time>2020-07-17T18:38:06.844Z</time>
      </trkpt>
      <trkpt lat="47.07829" lon="6.7096">
        <ele>860.331742</ele>
        <time>2020-07-17T18:38:24.814Z</time>
      </trkpt>
      <trkpt lat="47.07728" lon="6.70886">
        <ele>859.342982</ele>
        <time>2020-07-17T18:38:40.741Z</time>
      </trkpt>
      <trkpt lat="47.07721" lon="6.70862">
        <ele>858.76192</ele>
        <time>2020-07-17T18:38:42.924Z</time>
      </trkpt>
      <trkpt lat="47.07711" lon="6.70846">
        <ele>858.199238</ele>
        <time>2020-07-17T18:38:44.675Z</time>
      </trkpt>
      <trkpt lat="47.07669" lon="6.70798">
        <ele>856.163606</ele>
        <time>2020-07-17T18:38:51.476Z</time>
      </trkpt>
      <trkpt lat="47.07616" lon="6.70775">
        <ele>854.078656</ele>
        <time>2020-07-17T18:38:58.881Z</time>
      </trkpt>
      <trkpt lat="47.07596" lon="6.70778">
        <ele>853.287746</ele>
        <time>2020-07-17T18:39:03.517Z</time>
      </trkpt>
      <trkpt lat="47.07593" lon="6.7078">
        <ele>853.182666</ele>
        <time>2020-07-17T18:39:03.846Z</time>
      </trkpt>
      <trkpt lat="47.07579" lon="6.70799">
        <ele>852.512257</ele>
        <time>2020-07-17T18:39:13.489Z</time>
      </trkpt>
      <trkpt lat="47.07527" lon="6.70848">
        <ele>857.139873</ele>
        <time>2020-07-17T18:39:35.023Z</time>
      </trkpt>
      <trkpt lat="47.07518" lon="6.70872">
        <ele>858.519679</ele>
        <time>2020-07-17T18:39:48.777Z</time>
      </trkpt>
      <trkpt lat="47.07509" lon="6.70926">
        <ele>861.342757</ele>
        <time>2020-07-17T18:40:13.719Z</time>
      </trkpt>
      <trkpt lat="47.07483" lon="6.71007">
        <ele>865.94673</ele>
        <time>2020-07-17T18:41:02.678Z</time>
      </trkpt>
      <trkpt lat="47.07462" lon="6.71029">
        <ele>867.234133</ele>
        <time>2020-07-17T18:41:22.454Z</time>
      </trkpt>
      <trkpt lat="47.07455" lon="6.7103">
        <ele>867.61527</ele>
        <time>2020-07-17T18:41:27.712Z</time>
      </trkpt>
      <trkpt lat="47.07447" lon="6.71023">
        <ele>868.082175</ele>
        <time>2020-07-17T18:41:33.900Z</time>
      </trkpt>
      <trkpt lat="47.07428" lon="6.70954">
        <ele>870.59124</ele>
        <time>2020-07-17T18:42:02.254Z</time>
      </trkpt>
      <trkpt lat="47.07389" lon="6.70874">
        <ele>873.930592</ele>
        <time>2020-07-17T18:42:22.478Z</time>
      </trkpt>
      <trkpt lat="47.07392" lon="6.70882">
        <ele>823</ele>
      </trkpt>
      <trkpt lat="47.0739" lon="6.70888">
        <ele>823.4</ele>
      </trkpt>
      <trkpt lat="47.0739" lon="6.70888">
        <ele>823.4</ele>
      </trkpt>
      <trkpt lat="47.07391" lon="6.70898">
        <ele>823</ele>
      </trkpt>
      <trkpt lat="47.07392" lon="6.70901">
        <ele>822.8</ele>
      </trkpt>
      <trkpt lat="47.07394" lon="6.70912">
        <ele>822.2</ele>
      </trkpt>
      <trkpt lat="47.07395" lon="6.7092">
        <ele>821.7</ele>
      </trkpt>
      <trkpt lat="47.07397" lon="6.70931">
        <ele>821.1</ele>
      </trkpt>
      <trkpt lat="47.07401" lon="6.70946">
        <ele>820.3</ele>
      </trkpt>
      <trkpt lat="47.07402" lon="6.7096">
        <ele>819.5</ele>
      </trkpt>
      <trkpt lat="47.07403" lon="6.70978">
        <ele>818.6</ele>
      </trkpt>
      <trkpt lat="47.07407" lon="6.70993">
        <ele>817.8</ele>
      </trkpt>
      <trkpt lat="47.07412" lon="6.71007">
        <ele>817.1</ele>
      </trkpt>
      <trkpt lat="47.07415" lon="6.71022">
        <ele>816.5</ele>
      </trkpt>
      <trkpt lat="47.07413" lon="6.71044">
        <ele>823</ele>
      </trkpt>
      <trkpt lat="47.07412" lon="6.71066">
        <ele>829.9</ele>
      </trkpt>
      <trkpt lat="47.07411" lon="6.71089">
        <ele>835.8</ele>
      </trkpt>
      <trkpt lat="47.07406" lon="6.71112">
        <ele>842.5</ele>
      </trkpt>
      <trkpt lat="47.07402" lon="6.71141">
        <ele>849.2</ele>
      </trkpt>
      <trkpt lat="47.07402" lon="6.71171">
        <ele>855</ele>
      </trkpt>
      <trkpt lat="47.074" lon="6.71204">
        <ele>861.8</ele>
      </trkpt>
      <trkpt lat="47.07401" lon="6.71222">
        <ele>864.9</ele>
      </trkpt>
      <trkpt lat="47.07399" lon="6.71244">
        <ele>870.1</ele>
      </trkpt>
      <trkpt lat="47.07398" lon="6.71265">
        <ele>873.9</ele>
      </trkpt>
      <trkpt lat="47.07397" lon="6.71277">
        <ele>876.3</ele>
      </trkpt>
      <trkpt lat="47.07395" lon="6.71291">
        <ele>879.5</ele>
      </trkpt>
      <trkpt lat="47.07398" lon="6.71305">
        <ele>881.4</ele>
      </trkpt>
      <trkpt lat="47.07397" lon="6.71318">
        <ele>883.4</ele>
      </trkpt>
      <trkpt lat="47.07396" lon="6.71333">
        <ele>885.5</ele>
      </trkpt>
      <trkpt lat="47.07397" lon="6.71348">
        <ele>887.7</ele>
      </trkpt>
      <trkpt lat="47.07398" lon="6.71362">
        <ele>889.4</ele>
      </trkpt>
      <trkpt lat="47.07396" lon="6.71371">
        <ele>891</ele>
      </trkpt>
      <trkpt lat="47.0739" lon="6.71385">
        <ele>893</ele>
      </trkpt>
      <trkpt lat="47.0739" lon="6.71401">
        <ele>894.8</ele>
      </trkpt>
      <trkpt lat="47.07396" lon="6.71416">
        <ele>896.7</ele>
      </trkpt>
      <trkpt lat="47.07404" lon="6.71431">
        <ele>898.9</ele>
      </trkpt>
      <trkpt lat="47.0741" lon="6.71444">
        <ele>901.1</ele>
      </trkpt>
      <trkpt lat="47.0742" lon="6.71457">
        <ele>903.4</ele>
      </trkpt>
      <trkpt lat="47.07427" lon="6.71471">
        <ele>905.9</ele>
      </trkpt>
      <trkpt lat="47.07433" lon="6.71483">
        <ele>908.8</ele>
      </trkpt>
      <trkpt lat="47.07441" lon="6.71496">
        <ele>911.7</ele>
      </trkpt>
      <trkpt lat="47.07447" lon="6.71507">
        <ele>914.6</ele>
      </trkpt>
      <trkpt lat="47.07457" lon="6.71518">
        <ele>917.7</ele>
      </trkpt>
      <trkpt lat="47.07464" lon="6.71526">
        <ele>920.1</ele>
      </trkpt>
      <trkpt lat="47.07475" lon="6.71537">
        <ele>924</ele>
      </trkpt>
      <trkpt lat="47.07484" lon="6.71547">
        <ele>927.1</ele>
      </trkpt>
      <trkpt lat="47.07491" lon="6.71541">
        <ele>928.8</ele>
      </trkpt>
      <trkpt lat="47.07491" lon="6.7153">
        <ele>929.4</ele>
      </trkpt>
      <trkpt lat="47.07489" lon="6.71518">
        <ele>930.2</ele>
      </trkpt>
      <trkpt lat="47.07486" lon="6.71504">
        <ele>930.4</ele>
      </trkpt>
      <trkpt lat="47.07483" lon="6.71492">
        <ele>931.1</ele>
      </trkpt>
      <trkpt lat="47.07483" lon="6.71481">
        <ele>932.3</ele>
      </trkpt>
      <trkpt lat="47.07482" lon="6.71468">
        <ele>932.8</ele>
      </trkpt>
      <trkpt lat="47.07482" lon="6.71453">
        <ele>933.5</ele>
      </trkpt>
      <trkpt lat="47.07484" lon="6.71444">
        <ele>935</ele>
      </trkpt>
      <trkpt lat="47.07483" lon="6.71422">
        <ele>935.3</ele>
      </trkpt>
      <trkpt lat="47.07485" lon="6.71401">
        <ele>935.7</ele>
      </trkpt>
      <trkpt lat="47.07488" lon="6.71381">
        <ele>936.6</ele>
      </trkpt>
      <trkpt lat="47.07496" lon="6.71366">
        <ele>937.8</ele>
      </trkpt>
      <trkpt lat="47.07502" lon="6.71352">
        <ele>938.9</ele>
      </trkpt>
      <trkpt lat="47.07513" lon="6.71338">
        <ele>940.1</ele>
      </trkpt>
      <trkpt lat="47.07527" lon="6.71329">
        <ele>941.6</ele>
      </trkpt>
      <trkpt lat="47.07543" lon="6.71331">
        <ele>943.2</ele>
      </trkpt>
      <trkpt lat="47.07561" lon="6.71339">
        <ele>944.9</ele>
      </trkpt>
      <trkpt lat="47.07578" lon="6.71349">
        <ele>946.4</ele>
      </trkpt>
      <trkpt lat="47.07594" lon="6.71359">
        <ele>948</ele>
      </trkpt>
      <trkpt lat="47.07611" lon="6.71369">
        <ele>949.6</ele>
      </trkpt>
      <trkpt lat="47.07627" lon="6.71379">
        <ele>951.1</ele>
      </trkpt>
      <trkpt lat="47.07643" lon="6.71388">
        <ele>952.5</ele>
      </trkpt>
      <trkpt lat="47.07661" lon="6.71392">
        <ele>953.9</ele>
      </trkpt>
      <trkpt lat="47.07676" lon="6.7139">
        <ele>954.4</ele>
      </trkpt>
      <trkpt lat="47.07689" lon="6.71389">
        <ele>955.4</ele>
      </trkpt>
      <trkpt lat="47.07705" lon="6.71389">
        <ele>957.1</ele>
      </trkpt>
      <trkpt lat="47.07723" lon="6.71391">
        <ele>958.9</ele>
      </trkpt>
      <trkpt lat="47.07739" lon="6.71394">
        <ele>959.3</ele>
      </trkpt>
      <trkpt lat="47.07752" lon="6.71396">
        <ele>959.7</ele>
      </trkpt>
      <trkpt lat="47.07755" lon="6.71396">
        <ele>959.8</ele>
      </trkpt>
      <trkpt lat="47.07772" lon="6.71397">
        <ele>960.5</ele>
      </trkpt>
      <trkpt lat="47.07789" lon="6.714">
        <ele>961.4</ele>
      </trkpt>
      <trkpt lat="47.07806" lon="6.71405">
        <ele>962.2</ele>
      </trkpt>
      <trkpt lat="47.07823" lon="6.7141">
        <ele>962.8</ele>
      </trkpt>
      <trkpt lat="47.0784" lon="6.71414">
        <ele>963.4</ele>
      </trkpt>
      <trkpt lat="47.07856" lon="6.71415">
        <ele>963.7</ele>
      </trkpt>
      <trkpt lat="47.07871" lon="6.71416">
        <ele>963.8</ele>
      </trkpt>
      <trkpt lat="47.07885" lon="6.71418">
        <ele>963.6</ele>
      </trkpt>
      <trkpt lat="47.07899" lon="6.71421">
        <ele>963.1</ele>
      </trkpt>
      <trkpt lat="47.07911" lon="6.71427">
        <ele>962.5</ele>
      </trkpt>
      <trkpt lat="47.07925" lon="6.71441">
        <ele>961.4</ele>
      </trkpt>
      <trkpt lat="47.07945" lon="6.71454">
        <ele>959.8</ele>
      </trkpt>
      <trkpt lat="47.07972" lon="6.7146">
        <ele>957.8</ele>
      </trkpt>
      <trkpt lat="47.08006" lon="6.71455">
        <ele>955.5</ele>
      </trkpt>
      <trkpt lat="47.08057" lon="6.71449">
        <ele>952.7</ele>
      </trkpt>
      <trkpt lat="47.08092" lon="6.71457">
        <ele>952.1</ele>
      </trkpt>
      <trkpt lat="47.08122" lon="6.71469">
        <ele>952.3</ele>
      </trkpt>
      <trkpt lat="47.08145" lon="6.71479">
        <ele>952.6</ele>
      </trkpt>
      <trkpt lat="47.08168" lon="6.71488">
        <ele>952.8</ele>
      </trkpt>
      <trkpt lat="47.0819" lon="6.71507">
        <ele>953.3</ele>
      </trkpt>
      <trkpt lat="47.08209" lon="6.71528">
        <ele>955.3</ele>
      </trkpt>
      <trkpt lat="47.08228" lon="6.71552">
        <ele>958</ele>
      </trkpt>
      <trkpt lat="47.08241" lon="6.71577">
        <ele>960.5</ele>
      </trkpt>
      <trkpt lat="47.08253" lon="6.716">
        <ele>962.9</ele>
      </trkpt>
      <trkpt lat="47.08265" lon="6.71628">
        <ele>965.7</ele>
      </trkpt>
      <trkpt lat="47.08281" lon="6.71646">
        <ele>968.4</ele>
      </trkpt>
      <trkpt lat="47.08295" lon="6.71667">
        <ele>971</ele>
      </trkpt>
      <trkpt lat="47.08305" lon="6.71692">
        <ele>972.9</ele>
      </trkpt>
      <trkpt lat="47.08313" lon="6.71712">
        <ele>973.5</ele>
      </trkpt>
      <trkpt lat="47.08308" lon="6.71722">
        <ele>974.5</ele>
      </trkpt>
      <trkpt lat="47.083" lon="6.71729">
        <ele>975.9</ele>
      </trkpt>
      <trkpt lat="47.08295" lon="6.71735">
        <ele>976.9</ele>
      </trkpt>
      <trkpt lat="47.08296" lon="6.7175">
        <ele>978.7</ele>
      </trkpt>
      <trkpt lat="47.08291" lon="6.71766">
        <ele>981</ele>
      </trkpt>
      <trkpt lat="47.08285" lon="6.71781">
        <ele>983.1</ele>
      </trkpt>
      <trkpt lat="47.08277" lon="6.71795">
        <ele>985.3</ele>
      </trkpt>
      <trkpt lat="47.08271" lon="6.7181">
        <ele>987.3</ele>
      </trkpt>
      <trkpt lat="47.08267" lon="6.71825">
        <ele>989.1</ele>
      </trkpt>
      <trkpt lat="47.0826" lon="6.71838">
        <ele>991</ele>
      </trkpt>
      <trkpt lat="47.08249" lon="6.71847">
        <ele>993</ele>
      </trkpt>
      <trkpt lat="47.08243" lon="6.71861">
        <ele>994.9</ele>
      </trkpt>
      <trkpt lat="47.08236" lon="6.71873">
        <ele>996.7</ele>
      </trkpt>
      <trkpt lat="47.08229" lon="6.71883">
        <ele>998.4</ele>
      </trkpt>
      <trkpt lat="47.08223" lon="6.71892">
        <ele>999.8</ele>
      </trkpt>
      <trkpt lat="47.08217" lon="6.71905">
        <ele>1001.7</ele>
      </trkpt>
      <trkpt lat="47.08212" lon="6.71916">
        <ele>1003.1</ele>
      </trkpt>
      <trkpt lat="47.08212" lon="6.71921">
        <ele>1003.6</ele>
      </trkpt>
      <trkpt lat="47.08207" lon="6.71936">
        <ele>1005.3</ele>
      </trkpt>
      <trkpt lat="47.08204" lon="6.7195">
        <ele>1006.8</ele>
      </trkpt>
      <trkpt lat="47.08202" lon="6.71964">
        <ele>1008.4</ele>
      </trkpt>
      <trkpt lat="47.08195" lon="6.71975">
        <ele>1009.8</ele>
      </trkpt>
      <trkpt lat="47.08187" lon="6.71987">
        <ele>1011.4</ele>
      </trkpt>
      <trkpt lat="47.08179" lon="6.71999">
        <ele>1012.8</ele>
      </trkpt>
      <trkpt lat="47.0817" lon="6.72006">
        <ele>1013.8</ele>
      </trkpt>
      <trkpt lat="47.08162" lon="6.72007">
        <ele>1014.5</ele>
      </trkpt>
      <trkpt lat="47.0816" lon="6.72007">
        <ele>1014.6</ele>
      </trkpt>
      <trkpt lat="47.08148" lon="6.72006">
        <ele>1015.3</ele>
      </trkpt>
      <trkpt lat="47.08135" lon="6.72002">
        <ele>1016</ele>
      </trkpt>
      <trkpt lat="47.08125" lon="6.71999">
        <ele>1016.6</ele>
      </trkpt>
      <trkpt lat="47.08116" lon="6.72001">
        <ele>1017.2</ele>
      </trkpt>
      <trkpt lat="47.08108" lon="6.72002">
        <ele>1017.7</ele>
      </trkpt>
      <trkpt lat="47.08102" lon="6.72002">
        <ele>1018.1</ele>
      </trkpt>
      <trkpt lat="47.08095" lon="6.72">
        <ele>1018.4</ele>
      </trkpt>
      <trkpt lat="47.08088" lon="6.71995">
        <ele>1018.6</ele>
      </trkpt>
      <trkpt lat="47.0808" lon="6.7199">
        <ele>1018.9</ele>
      </trkpt>
      <trkpt lat="47.08071" lon="6.71985">
        <ele>1019.3</ele>
      </trkpt>
      <trkpt lat="47.08063" lon="6.71979">
        <ele>1019.6</ele>
      </trkpt>
      <trkpt lat="47.08054" lon="6.71976">
        <ele>1020</ele>
      </trkpt>
      <trkpt lat="47.08048" lon="6.71974">
        <ele>1020.4</ele>
      </trkpt>
      <trkpt lat="47.08046" lon="6.71974">
        <ele>1020.4</ele>
      </trkpt>
      <trkpt lat="47.08044" lon="6.71975">
        <ele>1020.6</ele>
      </trkpt>
      <trkpt lat="47.08044" lon="6.71975">
        <ele>1020.6</ele>
      </trkpt>
      <trkpt lat="47.08044" lon="6.71976">
        <ele>1020.6</ele>
      </trkpt>
      <trkpt lat="47.08048" lon="6.71974">
        <ele>1020.9</ele>
      </trkpt>
      <trkpt lat="47.08047" lon="6.71975">
        <ele>1021</ele>
      </trkpt>
      <trkpt lat="47.08042" lon="6.71977">
        <ele>1021.3</ele>
      </trkpt>
      <trkpt lat="47.08037" lon="6.71981">
        <ele>1021.7</ele>
      </trkpt>
      <trkpt lat="47.08032" lon="6.71986">
        <ele>1022.2</ele>
      </trkpt>
      <trkpt lat="47.08028" lon="6.71994">
        <ele>1022.8</ele>
      </trkpt>
      <trkpt lat="47.08024" lon="6.72001">
        <ele>1023.2</ele>
      </trkpt>
      <trkpt lat="47.08019" lon="6.72007">
        <ele>1023.7</ele>
      </trkpt>
      <trkpt lat="47.08014" lon="6.72013">
        <ele>1024.2</ele>
      </trkpt>
      <trkpt lat="47.08007" lon="6.72018">
        <ele>1024.7</ele>
      </trkpt>
      <trkpt lat="47.08" lon="6.72022">
        <ele>1025</ele>
      </trkpt>
      <trkpt lat="47.07991" lon="6.72023">
        <ele>1025.4</ele>
      </trkpt>
      <trkpt lat="47.07982" lon="6.72024">
        <ele>1025.7</ele>
      </trkpt>
      <trkpt lat="47.07973" lon="6.72026">
        <ele>1026</ele>
      </trkpt>
      <trkpt lat="47.07965" lon="6.72028">
        <ele>1026.4</ele>
      </trkpt>
      <trkpt lat="47.07957" lon="6.7203">
        <ele>1026.8</ele>
      </trkpt>
      <trkpt lat="47.07949" lon="6.72032">
        <ele>1027.2</ele>
      </trkpt>
      <trkpt lat="47.07943" lon="6.72034">
        <ele>1027.5</ele>
      </trkpt>
      <trkpt lat="47.0794" lon="6.72036">
        <ele>1027.6</ele>
      </trkpt>
      <trkpt lat="47.07935" lon="6.72035">
        <ele>1028.2</ele>
      </trkpt>
      <trkpt lat="47.07928" lon="6.72036">
        <ele>1028.2</ele>
      </trkpt>
      <trkpt lat="47.0792" lon="6.7204">
        <ele>1028.2</ele>
      </trkpt>
      <trkpt lat="47.07912" lon="6.72045">
        <ele>1028.2</ele>
      </trkpt>
      <trkpt lat="47.07912" lon="6.72055">
        <ele>1028.6</ele>
      </trkpt>
      <trkpt lat="47.07913" lon="6.72065">
        <ele>1028.8</ele>
      </trkpt>
      <trkpt lat="47.07915" lon="6.72075">
        <ele>1029</ele>
      </trkpt>
      <trkpt lat="47.07915" lon="6.72086">
        <ele>1029.2</ele>
      </trkpt>
      <trkpt lat="47.07914" lon="6.72096">
        <ele>1029.3</ele>
      </trkpt>
      <trkpt lat="47.07908" lon="6.72107">
        <ele>1029.4</ele>
      </trkpt>
      <trkpt lat="47.07907" lon="6.72111">
        <ele>1029.4</ele>
      </trkpt>
      <trkpt lat="47.07906" lon="6.72111">
        <ele>1029.4</ele>
      </trkpt>
      <trkpt lat="47.07907" lon="6.7211">
        <ele>1029.4</ele>
      </trkpt>
      <trkpt lat="47.07903" lon="6.72116">
        <ele>1029.4</ele>
      </trkpt>
      <trkpt lat="47.07896" lon="6.72137">
        <ele>1029.3</ele>
      </trkpt>
      <trkpt lat="47.07887" lon="6.72162">
        <ele>1029</ele>
      </trkpt>
      <trkpt lat="47.0788" lon="6.72195">
        <ele>1029.3</ele>
      </trkpt>
      <trkpt lat="47.07885" lon="6.72221">
        <ele>1030.5</ele>
      </trkpt>
      <trkpt lat="47.07892" lon="6.72245">
        <ele>1031.8</ele>
      </trkpt>
      <trkpt lat="47.079" lon="6.72268">
        <ele>1032.6</ele>
      </trkpt>
      <trkpt lat="47.07906" lon="6.72292">
        <ele>1033.9</ele>
      </trkpt>
      <trkpt lat="47.07914" lon="6.72316">
        <ele>1035.5</ele>
      </trkpt>
      <trkpt lat="47.07924" lon="6.72338">
        <ele>1037.3</ele>
      </trkpt>
      <trkpt lat="47.07934" lon="6.7236">
        <ele>1039.2</ele>
      </trkpt>
      <trkpt lat="47.07945" lon="6.72375">
        <ele>1041.4</ele>
      </trkpt>
      <trkpt lat="47.07953" lon="6.72395">
        <ele>1043.5</ele>
      </trkpt>
      <trkpt lat="47.0796" lon="6.72416">
        <ele>1045.5</ele>
      </trkpt>
      <trkpt lat="47.07969" lon="6.72436">
        <ele>1047.3</ele>
      </trkpt>
      <trkpt lat="47.07977" lon="6.72456">
        <ele>1049.2</ele>
      </trkpt>
      <trkpt lat="47.07984" lon="6.72476">
        <ele>1051.2</ele>
      </trkpt>
      <trkpt lat="47.07992" lon="6.72496">
        <ele>1053.2</ele>
      </trkpt>
      <trkpt lat="47.08001" lon="6.72514">
        <ele>1054.7</ele>
      </trkpt>
      <trkpt lat="47.08007" lon="6.72532">
        <ele>1055.7</ele>
      </trkpt>
      <trkpt lat="47.08012" lon="6.72549">
        <ele>1057.1</ele>
      </trkpt>
      <trkpt lat="47.08015" lon="6.72569">
        <ele>1058.5</ele>
      </trkpt>
      <trkpt lat="47.0802" lon="6.72589">
        <ele>1059.9</ele>
      </trkpt>
      <trkpt lat="47.08026" lon="6.72609">
        <ele>1061.7</ele>
      </trkpt>
      <trkpt lat="47.08031" lon="6.7263">
        <ele>1063.5</ele>
      </trkpt>
      <trkpt lat="47.08028" lon="6.72651">
        <ele>1064</ele>
      </trkpt>
      <trkpt lat="47.08017" lon="6.72673">
        <ele>1063.8</ele>
      </trkpt>
      <trkpt lat="47.07997" lon="6.72688">
        <ele>1063.2</ele>
      </trkpt>
      <trkpt lat="47.07973" lon="6.72688">
        <ele>1062.1</ele>
      </trkpt>
      <trkpt lat="47.07947" lon="6.72687">
        <ele>1061</ele>
      </trkpt>
      <trkpt lat="47.07918" lon="6.72683">
        <ele>1059.9</ele>
      </trkpt>
      <trkpt lat="47.07898" lon="6.72687">
        <ele>1059.5</ele>
      </trkpt>
      <trkpt lat="47.07811" lon="6.728">
        <ele>1081.5</ele>
      </trkpt>
      <trkpt lat="47.0779" lon="6.7288">
        <ele>1093</ele>
      </trkpt>
      <trkpt lat="47.07751" lon="6.72912">
        <ele>1093</ele>
      </trkpt>
      <trkpt lat="47.07731" lon="6.72995">
        <ele>1099.7</ele>
      </trkpt>
      <trkpt lat="47.07665" lon="6.73075">
        <ele>1108.3</ele>
      </trkpt>
      <trkpt lat="47.07684" lon="6.73194">
        <ele>1116.4</ele>
      </trkpt>
      <trkpt lat="47.07652" lon="6.73162">
        <ele>1116.3</ele>
      </trkpt>
      <trkpt lat="47.07644" lon="6.73091">
        <ele>1114.8</ele>
      </trkpt>
      <trkpt lat="47.07623" lon="6.73007">
        <ele>1113.5</ele>
      </trkpt>
      <trkpt lat="47.07569" lon="6.72934">
        <ele>1115.6</ele>
      </trkpt>
      <trkpt lat="47.07479" lon="6.72859">
        <ele>1116.3</ele>
      </trkpt>
      <trkpt lat="47.07442" lon="6.72855">
        <ele>1117.8</ele>
      </trkpt>
      <trkpt lat="47.07362" lon="6.72866">
        <ele>1123.9</ele>
      </trkpt>
      <trkpt lat="47.07334" lon="6.72866">
        <ele>1124.6</ele>
      </trkpt>
      <trkpt lat="47.07302" lon="6.72912">
        <ele>1128.1</ele>
      </trkpt>
      <trkpt lat="47.07285" lon="6.72921">
        <ele>1130.7</ele>
      </trkpt>
      <trkpt lat="47.07246" lon="6.72842">
        <ele>1126.4</ele>
      </trkpt>
      <trkpt lat="47.07168" lon="6.73105">
        <ele>1142.4</ele>
      </trkpt>
      <trkpt lat="47.07163" lon="6.73121">
        <ele>1149.5</ele>
      </trkpt>
      <trkpt lat="47.07156" lon="6.7312">
        <ele>1146.7</ele>
      </trkpt>
      <trkpt lat="47.07114" lon="6.73105">
        <ele>1149</ele>
      </trkpt>
      <trkpt lat="47.07083" lon="6.73091">
        <ele>1150.8</ele>
      </trkpt>
      <trkpt lat="47.07055" lon="6.73081">
        <ele>1152</ele>
      </trkpt>
      <trkpt lat="47.07026" lon="6.73072">
        <ele>1152.5</ele>
      </trkpt>
      <trkpt lat="47.07004" lon="6.73065">
        <ele>1152.8</ele>
      </trkpt>
      <trkpt lat="47.06969" lon="6.73059">
        <ele>1153.2</ele>
      </trkpt>
      <trkpt lat="47.06943" lon="6.73077">
        <ele>1151.9</ele>
      </trkpt>
      <trkpt lat="47.06918" lon="6.73096">
        <ele>1149.4</ele>
      </trkpt>
      <trkpt lat="47.0687" lon="6.73133">
        <ele>1144.1</ele>
      </trkpt>
      <trkpt lat="47.06834" lon="6.73159">
        <ele>1140.6</ele>
      </trkpt>
      <trkpt lat="47.06797" lon="6.73235">
        <ele>1133.9</ele>
      </trkpt>
      <trkpt lat="47.06792" lon="6.73297">
        <ele>1127.7</ele>
      </trkpt>
      <trkpt lat="47.06764" lon="6.73303">
        <ele>1124.2</ele>
      </trkpt>
      <trkpt lat="47.06728" lon="6.73269">
        <ele>1119.8</ele>
      </trkpt>
      <trkpt lat="47.06705" lon="6.73217">
        <ele>1119.7</ele>
      </trkpt>
      <trkpt lat="47.06694" lon="6.73167">
        <ele>1120.6</ele>
      </trkpt>
      <trkpt lat="47.06685" lon="6.73135">
        <ele>1120.8</ele>
      </trkpt>
      <trkpt lat="47.06658" lon="6.73105">
        <ele>1119.1</ele>
      </trkpt>
      <trkpt lat="47.06624" lon="6.73073">
        <ele>1115</ele>
      </trkpt>
      <trkpt lat="47.06585" lon="6.73024">
        <ele>1106.6</ele>
      </trkpt>
      <trkpt lat="47.06565" lon="6.73">
        <ele>1099</ele>
      </trkpt>
      <trkpt lat="47.06559" lon="6.73012">
        <ele>1098.1</ele>
      </trkpt>
      <trkpt lat="47.06554" lon="6.73028">
        <ele>1096.7</ele>
      </trkpt>
      <trkpt lat="47.06536" lon="6.73018">
        <ele>1094.2</ele>
      </trkpt>
      <trkpt lat="47.06514" lon="6.7296">
        <ele>1088</ele>
      </trkpt>
      <trkpt lat="47.06492" lon="6.72983">
        <ele>1084.5</ele>
      </trkpt>
      <trkpt lat="47.06479" lon="6.72953">
        <ele>1082.3</ele>
      </trkpt>
      <trkpt lat="47.06475" lon="6.72891">
        <ele>1077.9</ele>
      </trkpt>
      <trkpt lat="47.06453" lon="6.72836">
        <ele>1075.5</ele>
      </trkpt>
      <trkpt lat="47.06427" lon="6.72811">
        <ele>1073.8</ele>
      </trkpt>
      <trkpt lat="47.06411" lon="6.72742">
        <ele>1070.3</ele>
      </trkpt>
      <trkpt lat="47.06395" lon="6.72684">
        <ele>1067</ele>
      </trkpt>
      <trkpt lat="47.06369" lon="6.72631">
        <ele>1062.4</ele>
      </trkpt>
      <trkpt lat="47.06353" lon="6.72626">
        <ele>1060</ele>
      </trkpt>
      <trkpt lat="47.06361" lon="6.72677">
        <ele>1055.6</ele>
      </trkpt>
      <trkpt lat="47.0635" lon="6.72729">
        <ele>1051.4</ele>
      </trkpt>
      <trkpt lat="47.06331" lon="6.72778">
        <ele>1046.2</ele>
      </trkpt>
      <trkpt lat="47.06315" lon="6.72753">
        <ele>1042.3</ele>
      </trkpt>
      <trkpt lat="47.06303" lon="6.72797">
        <ele>1037</ele>
      </trkpt>
      <trkpt lat="47.06294" lon="6.72814">
        <ele>1034.9</ele>
      </trkpt>
      <trkpt lat="47.06294" lon="6.7281">
        <ele>1034.4</ele>
      </trkpt>
      <trkpt lat="47.0629" lon="6.7281">
        <ele>1033.8</ele>
      </trkpt>
      <trkpt lat="47.06278" lon="6.72795">
        <ele>1030</ele>
      </trkpt>
      <trkpt lat="47.06266" lon="6.7282">
        <ele>1024.8</ele>
      </trkpt>
      <trkpt lat="47.06246" lon="6.72856">
        <ele>1017.8</ele>
      </trkpt>
      <trkpt lat="47.06208" lon="6.72864">
        <ele>1011.6</ele>
      </trkpt>
      <trkpt lat="47.06181" lon="6.72844">
        <ele>1007.7</ele>
      </trkpt>
      <trkpt lat="47.06178" lon="6.72865">
        <ele>1008.9</ele>
      </trkpt>
      <trkpt lat="47.06186" lon="6.72891">
        <ele>1010.1</ele>
      </trkpt>
      <trkpt lat="47.06196" lon="6.72905">
        <ele>1009.1</ele>
      </trkpt>
      <trkpt lat="47.0618" lon="6.72907">
        <ele>1006.5</ele>
      </trkpt>
      <trkpt lat="47.06132" lon="6.72891">
        <ele>998.9</ele>
      </trkpt>
      <trkpt lat="47.06116" lon="6.72868">
        <ele>996.1</ele>
      </trkpt>
      <trkpt lat="47.0611" lon="6.7286">
        <ele>995.3</ele>
      </trkpt>
      <trkpt lat="47.06078" lon="6.72825">
        <ele>991.1</ele>
      </trkpt>
      <trkpt lat="47.06043" lon="6.72773">
        <ele>985.5</ele>
      </trkpt>
      <trkpt lat="47.06027" lon="6.72738">
        <ele>982.7</ele>
      </trkpt>
      <trkpt lat="47.06024" lon="6.72728">
        <ele>982.2</ele>
      </trkpt>
      <trkpt lat="47.06024" lon="6.72713">
        <ele>981.6</ele>
      </trkpt>
      <trkpt lat="47.06026" lon="6.72698">
        <ele>980.9</ele>
      </trkpt>
      <trkpt lat="47.0603" lon="6.72676">
        <ele>979.9</ele>
      </trkpt>
      <trkpt lat="47.06035" lon="6.72662">
        <ele>979.2</ele>
      </trkpt>
      <trkpt lat="47.06038" lon="6.7265">
        <ele>978.7</ele>
      </trkpt>
      <trkpt lat="47.06031" lon="6.72636">
        <ele>977.9</ele>
      </trkpt>
      <trkpt lat="47.06006" lon="6.72599">
        <ele>975.2</ele>
      </trkpt>
      <trkpt lat="47.0598" lon="6.72555">
        <ele>972</ele>
      </trkpt>
      <trkpt lat="47.05956" lon="6.72482">
        <ele>967.7</ele>
      </trkpt>
      <trkpt lat="47.05922" lon="6.72457">
        <ele>964.7</ele>
      </trkpt>
      <trkpt lat="47.059" lon="6.7243">
        <ele>963.4</ele>
      </trkpt>
      <trkpt lat="47.05885" lon="6.72409">
        <ele>961</ele>
      </trkpt>
      <trkpt lat="47.05876" lon="6.72393">
        <ele>959.2</ele>
      </trkpt>
      <trkpt lat="47.05867" lon="6.72376">
        <ele>956.533274</ele>
        <time>2020-07-17T19:05:08.325Z</time>
      </trkpt>
      <trkpt lat="47.05854" lon="6.72397">
        <ele>961.7</ele>
      </trkpt>
      <trkpt lat="47.05857" lon="6.72447">
        <ele>963.8</ele>
      </trkpt>
      <trkpt lat="47.05852" lon="6.72519">
        <ele>960.9</ele>
      </trkpt>
      <trkpt lat="47.05869" lon="6.7261">
        <ele>957.2</ele>
      </trkpt>
      <trkpt lat="47.05867" lon="6.72718">
        <ele>950.1</ele>
      </trkpt>
      <trkpt lat="47.05848" lon="6.72742">
        <ele>951.7</ele>
      </trkpt>
      <trkpt lat="47.05855" lon="6.72792">
        <ele>952.2</ele>
      </trkpt>
      <trkpt lat="47.05845" lon="6.72812">
        <ele>954.7</ele>
      </trkpt>
      <trkpt lat="47.05832" lon="6.72816">
        <ele>968.7</ele>
      </trkpt>
      <trkpt lat="47.05816" lon="6.72848">
        <ele>980.2</ele>
      </trkpt>
      <trkpt lat="47.05817" lon="6.72891">
        <ele>988.2</ele>
      </trkpt>
      <trkpt lat="47.05895" lon="6.73173">
        <ele>1021.7</ele>
      </trkpt>
      <trkpt lat="47.05942" lon="6.73358">
        <ele>1018</ele>
      </trkpt>
      <trkpt lat="47.05935" lon="6.73401">
        <ele>1021.4</ele>
      </trkpt>
      <trkpt lat="47.05919" lon="6.73439">
        <ele>1026.7</ele>
      </trkpt>
      <trkpt lat="47.05907" lon="6.73462">
        <ele>1030.3</ele>
      </trkpt>
      <trkpt lat="47.05899" lon="6.73476">
        <ele>1030.2</ele>
      </trkpt>
      <trkpt lat="47.05876" lon="6.73441">
        <ele>1030.9</ele>
      </trkpt>
      <trkpt lat="47.05817" lon="6.73418">
        <ele>1033</ele>
      </trkpt>
      <trkpt lat="47.05766" lon="6.73435">
        <ele>1030.7</ele>
      </trkpt>
      <trkpt lat="47.05731" lon="6.73476">
        <ele>1021</ele>
      </trkpt>
      <trkpt lat="47.05721" lon="6.73532">
        <ele>1011.2</ele>
      </trkpt>
      <trkpt lat="47.05715" lon="6.73582">
        <ele>1009.1</ele>
      </trkpt>
      <trkpt lat="47.05752" lon="6.73647">
        <ele>1009.7</ele>
      </trkpt>
      <trkpt lat="47.05824" lon="6.74013">
        <ele>1014</ele>
      </trkpt>
      <trkpt lat="47.05839" lon="6.74158">
        <ele>1018.4</ele>
      </trkpt>
      <trkpt lat="47.05928" lon="6.74397">
        <ele>1023.9</ele>
      </trkpt>
      <trkpt lat="47.06042" lon="6.74541">
        <ele>1030.3</ele>
      </trkpt>
      <trkpt lat="47.06168" lon="6.74792">
        <ele>1028.9</ele>
      </trkpt>
      <trkpt lat="47.06175" lon="6.74852">
        <ele>1026.5</ele>
      </trkpt>
      <trkpt lat="47.06322" lon="6.75106">
        <ele>1031.2</ele>
      </trkpt>
    </trkseg>
  </trk>
</gpx>